<?xml version="1.0" encoding="UTF-8"?>
<gpx version="1.1" creator="https://www.youtrack.es" xsi:schemaLocation="http://www.topografix.com/GPX/1/1 http://www.topografix.com/GPX/1/1/gpx.xsd http://www.garmin.com/xmlschemas/GpxExtensions/v3 http://www.garmin.com/xmlschemas/GpxExtensionsv3.xsd http://www.garmin.com/xmlschemas/TrackPointExtension/v1 http://www.garmin.com/xmlschemas/TrackPointExtensionv1.xsd" xmlns:gpxtpx="http://www.garmin.com/xmlschemas/TrackPointExtension/v1" xmlns:gpxx="http://www.garmin.com/xmlschemas/GpxExtensions/v3" xmlns:xsi="http://www.w3.org/2001/XMLSchema-instance">
  <metadata>
    <link href="https://www.youtrack.es">
      <text>YouTrack.es</text>
    </link>
    <time>2026-05-10T19:23:25Z</time>
  </metadata>
  <trk>
    <src>https://www.youtrack.es</src>
    <link href="https://www.youtrack.es/ruta/23812-https-bit-ly-3jdictk-p0fqc6">
      <text>YouTrack.es</text>
    </link>
    <trkseg>
      <trkpt lat="39.960375" lon="-4.831760">
        <ele>367.283997</ele>
        <time>2010-09-24T08:57:14Z</time>
      </trkpt>
      <trkpt lat="39.959793" lon="-4.834378">
        <ele>367.283997</ele>
        <time>2010-09-24T08:57:15Z</time>
      </trkpt>
      <trkpt lat="39.959388" lon="-4.834298">
        <ele>367.893585</ele>
        <time>2010-09-24T08:57:16Z</time>
      </trkpt>
      <trkpt lat="39.958773" lon="-4.834773">
        <ele>366.979187</ele>
        <time>2010-09-24T08:57:17Z</time>
      </trkpt>
      <trkpt lat="39.958402" lon="-4.835167">
        <ele>368.198395</ele>
        <time>2010-09-24T08:57:18Z</time>
      </trkpt>
      <trkpt lat="39.957906" lon="-4.835768">
        <ele>368.808014</ele>
        <time>2010-09-24T08:57:19Z</time>
      </trkpt>
      <trkpt lat="39.957659" lon="-4.836007">
        <ele>369.722412</ele>
        <time>2010-09-24T08:57:20Z</time>
      </trkpt>
      <trkpt lat="39.957050" lon="-4.836061">
        <ele>369.722412</ele>
        <time>2010-09-24T08:57:21Z</time>
      </trkpt>
      <trkpt lat="39.956602" lon="-4.836207">
        <ele>371.246399</ele>
        <time>2010-09-24T08:57:22Z</time>
      </trkpt>
      <trkpt lat="39.956315" lon="-4.836375">
        <ele>368.808014</ele>
        <time>2010-09-24T08:57:23Z</time>
      </trkpt>
      <trkpt lat="39.955895" lon="-4.836469">
        <ele>369.722412</ele>
        <time>2010-09-24T08:57:24Z</time>
      </trkpt>
      <trkpt lat="39.955760" lon="-4.836431">
        <ele>369.417603</ele>
        <time>2010-09-24T08:57:25Z</time>
      </trkpt>
      <trkpt lat="39.955710" lon="-4.836360">
        <ele>367.893585</ele>
        <time>2010-09-24T08:57:26Z</time>
      </trkpt>
      <trkpt lat="39.955260" lon="-4.837670">
        <ele>367.283997</ele>
        <time>2010-09-24T08:57:27Z</time>
      </trkpt>
      <trkpt lat="39.955050" lon="-4.838190">
        <ele>367.893585</ele>
        <time>2010-09-24T08:57:28Z</time>
      </trkpt>
      <trkpt lat="39.954870" lon="-4.838770">
        <ele>367.283997</ele>
        <time>2010-09-24T08:57:29Z</time>
      </trkpt>
      <trkpt lat="39.954880" lon="-4.839020">
        <ele>367.893585</ele>
        <time>2010-09-24T08:57:30Z</time>
      </trkpt>
      <trkpt lat="39.954820" lon="-4.839230">
        <ele>368.198395</ele>
        <time>2010-09-24T08:57:31Z</time>
      </trkpt>
      <trkpt lat="39.954650" lon="-4.839380">
        <ele>368.808014</ele>
        <time>2010-09-24T08:57:32Z</time>
      </trkpt>
      <trkpt lat="39.954400" lon="-4.840200">
        <ele>367.283997</ele>
        <time>2010-09-24T08:57:33Z</time>
      </trkpt>
      <trkpt lat="39.953580" lon="-4.841570">
        <ele>367.893585</ele>
        <time>2010-09-24T08:57:34Z</time>
      </trkpt>
      <trkpt lat="39.953490" lon="-4.841860">
        <ele>367.893585</ele>
        <time>2010-09-24T08:57:35Z</time>
      </trkpt>
      <trkpt lat="39.953440" lon="-4.842130">
        <ele>367.283997</ele>
        <time>2010-09-24T08:57:36Z</time>
      </trkpt>
      <trkpt lat="39.953260" lon="-4.842310">
        <ele>368.198395</ele>
        <time>2010-09-24T08:57:37Z</time>
      </trkpt>
      <trkpt lat="39.953050" lon="-4.842320">
        <ele>367.893585</ele>
        <time>2010-09-24T08:57:38Z</time>
      </trkpt>
      <trkpt lat="39.952870" lon="-4.842440">
        <ele>367.283997</ele>
        <time>2010-09-24T08:57:39Z</time>
      </trkpt>
      <trkpt lat="39.951860" lon="-4.843370">
        <ele>367.283997</ele>
        <time>2010-09-24T08:57:40Z</time>
      </trkpt>
      <trkpt lat="39.951710" lon="-4.843390">
        <ele>368.198395</ele>
        <time>2010-09-24T08:57:41Z</time>
      </trkpt>
      <trkpt lat="39.951550" lon="-4.843260">
        <ele>368.198395</ele>
        <time>2010-09-24T08:57:42Z</time>
      </trkpt>
      <trkpt lat="39.950910" lon="-4.843900">
        <ele>366.979187</ele>
        <time>2010-09-24T08:57:43Z</time>
      </trkpt>
      <trkpt lat="39.950700" lon="-4.844010">
        <ele>366.369598</ele>
        <time>2010-09-24T08:57:44Z</time>
      </trkpt>
      <trkpt lat="39.950360" lon="-4.844300">
        <ele>366.369598</ele>
        <time>2010-09-24T08:57:45Z</time>
      </trkpt>
      <trkpt lat="39.950230" lon="-4.844510">
        <ele>365.455200</ele>
        <time>2010-09-24T08:57:46Z</time>
      </trkpt>
      <trkpt lat="39.950090" lon="-4.844670">
        <ele>366.064789</ele>
        <time>2010-09-24T08:57:47Z</time>
      </trkpt>
      <trkpt lat="39.949760" lon="-4.844910">
        <ele>366.979187</ele>
        <time>2010-09-24T08:57:48Z</time>
      </trkpt>
      <trkpt lat="39.949580" lon="-4.845010">
        <ele>366.979187</ele>
        <time>2010-09-24T08:57:49Z</time>
      </trkpt>
      <trkpt lat="39.949210" lon="-4.845150">
        <ele>366.064789</ele>
        <time>2010-09-24T08:57:50Z</time>
      </trkpt>
      <trkpt lat="39.948290" lon="-4.845660">
        <ele>366.369598</ele>
        <time>2010-09-24T08:57:51Z</time>
      </trkpt>
      <trkpt lat="39.947340" lon="-4.846350">
        <ele>366.979187</ele>
        <time>2010-09-24T08:57:52Z</time>
      </trkpt>
      <trkpt lat="39.946800" lon="-4.846630">
        <ele>366.064789</ele>
        <time>2010-09-24T08:57:53Z</time>
      </trkpt>
      <trkpt lat="39.946480" lon="-4.846930">
        <ele>366.369598</ele>
        <time>2010-09-24T08:57:54Z</time>
      </trkpt>
      <trkpt lat="39.946170" lon="-4.847300">
        <ele>366.369598</ele>
        <time>2010-09-24T08:57:55Z</time>
      </trkpt>
      <trkpt lat="39.945870" lon="-4.847670">
        <ele>366.369598</ele>
        <time>2010-09-24T08:57:56Z</time>
      </trkpt>
      <trkpt lat="39.945750" lon="-4.847860">
        <ele>366.064789</ele>
        <time>2010-09-24T08:57:57Z</time>
      </trkpt>
      <trkpt lat="39.945660" lon="-4.848060">
        <ele>366.064789</ele>
        <time>2010-09-24T08:57:58Z</time>
      </trkpt>
      <trkpt lat="39.945590" lon="-4.848320">
        <ele>365.455200</ele>
        <time>2010-09-24T08:57:59Z</time>
      </trkpt>
      <trkpt lat="39.945610" lon="-4.848400">
        <ele>365.455200</ele>
        <time>2010-09-24T08:58:00Z</time>
      </trkpt>
      <trkpt lat="39.945720" lon="-4.848420">
        <ele>366.064789</ele>
        <time>2010-09-24T08:58:01Z</time>
      </trkpt>
      <trkpt lat="39.945860" lon="-4.848580">
        <ele>366.369598</ele>
        <time>2010-09-24T08:58:02Z</time>
      </trkpt>
      <trkpt lat="39.946310" lon="-4.849250">
        <ele>367.283997</ele>
        <time>2010-09-24T08:58:03Z</time>
      </trkpt>
      <trkpt lat="39.946890" lon="-4.850040">
        <ele>367.893585</ele>
        <time>2010-09-24T08:58:04Z</time>
      </trkpt>
      <trkpt lat="39.947380" lon="-4.850570">
        <ele>372.160797</ele>
        <time>2010-09-24T08:58:05Z</time>
      </trkpt>
      <trkpt lat="39.947820" lon="-4.851000">
        <ele>371.246399</ele>
        <time>2010-09-24T08:58:06Z</time>
      </trkpt>
      <trkpt lat="39.947850" lon="-4.851170">
        <ele>371.246399</ele>
        <time>2010-09-24T08:58:07Z</time>
      </trkpt>
      <trkpt lat="39.947500" lon="-4.851800">
        <ele>372.160797</ele>
        <time>2010-09-24T08:58:08Z</time>
      </trkpt>
      <trkpt lat="39.947370" lon="-4.851990">
        <ele>371.246399</ele>
        <time>2010-09-24T08:58:09Z</time>
      </trkpt>
      <trkpt lat="39.946340" lon="-4.853170">
        <ele>371.551208</ele>
        <time>2010-09-24T08:58:10Z</time>
      </trkpt>
      <trkpt lat="39.945900" lon="-4.853750">
        <ele>371.551208</ele>
        <time>2010-09-24T08:58:11Z</time>
      </trkpt>
      <trkpt lat="39.945770" lon="-4.853960">
        <ele>371.246399</ele>
        <time>2010-09-24T08:58:12Z</time>
      </trkpt>
      <trkpt lat="39.945140" lon="-4.855140">
        <ele>371.246399</ele>
        <time>2010-09-24T08:58:13Z</time>
      </trkpt>
      <trkpt lat="39.944110" lon="-4.856840">
        <ele>370.332001</ele>
        <time>2010-09-24T08:58:14Z</time>
      </trkpt>
      <trkpt lat="39.943530" lon="-4.857850">
        <ele>369.722412</ele>
        <time>2010-09-24T08:58:15Z</time>
      </trkpt>
      <trkpt lat="39.942790" lon="-4.859050">
        <ele>369.722412</ele>
        <time>2010-09-24T08:58:16Z</time>
      </trkpt>
      <trkpt lat="39.942290" lon="-4.860130">
        <ele>370.332001</ele>
        <time>2010-09-24T08:58:17Z</time>
      </trkpt>
      <trkpt lat="39.941520" lon="-4.861570">
        <ele>369.722412</ele>
        <time>2010-09-24T08:58:18Z</time>
      </trkpt>
      <trkpt lat="39.940790" lon="-4.863040">
        <ele>368.808014</ele>
        <time>2010-09-24T08:58:19Z</time>
      </trkpt>
      <trkpt lat="39.940570" lon="-4.863550">
        <ele>369.417603</ele>
        <time>2010-09-24T08:58:20Z</time>
      </trkpt>
      <trkpt lat="39.940500" lon="-4.863770">
        <ele>368.808014</ele>
        <time>2010-09-24T08:58:21Z</time>
      </trkpt>
      <trkpt lat="39.940370" lon="-4.864480">
        <ele>368.808014</ele>
        <time>2010-09-24T08:58:22Z</time>
      </trkpt>
      <trkpt lat="39.940230" lon="-4.864930">
        <ele>368.808014</ele>
        <time>2010-09-24T08:58:23Z</time>
      </trkpt>
      <trkpt lat="39.939890" lon="-4.865750">
        <ele>368.198395</ele>
        <time>2010-09-24T08:58:24Z</time>
      </trkpt>
      <trkpt lat="39.939480" lon="-4.866720">
        <ele>367.893585</ele>
        <time>2010-09-24T08:58:25Z</time>
      </trkpt>
      <trkpt lat="39.939240" lon="-4.867220">
        <ele>368.808014</ele>
        <time>2010-09-24T08:58:26Z</time>
      </trkpt>
      <trkpt lat="39.938630" lon="-4.868190">
        <ele>367.283997</ele>
        <time>2010-09-24T08:58:27Z</time>
      </trkpt>
      <trkpt lat="39.938440" lon="-4.868540">
        <ele>366.064789</ele>
        <time>2010-09-24T08:58:28Z</time>
      </trkpt>
      <trkpt lat="39.938410" lon="-4.868800">
        <ele>368.808014</ele>
        <time>2010-09-24T08:58:29Z</time>
      </trkpt>
      <trkpt lat="39.938310" lon="-4.869060">
        <ele>367.283997</ele>
        <time>2010-09-24T08:58:30Z</time>
      </trkpt>
      <trkpt lat="39.937750" lon="-4.869580">
        <ele>368.198395</ele>
        <time>2010-09-24T08:58:31Z</time>
      </trkpt>
      <trkpt lat="39.937200" lon="-4.870210">
        <ele>368.198395</ele>
        <time>2010-09-24T08:58:32Z</time>
      </trkpt>
      <trkpt lat="39.937050" lon="-4.870430">
        <ele>367.283997</ele>
        <time>2010-09-24T08:58:33Z</time>
      </trkpt>
      <trkpt lat="39.936940" lon="-4.870650">
        <ele>367.893585</ele>
        <time>2010-09-24T08:58:34Z</time>
      </trkpt>
      <trkpt lat="39.936890" lon="-4.870910">
        <ele>368.808014</ele>
        <time>2010-09-24T08:58:35Z</time>
      </trkpt>
      <trkpt lat="39.936790" lon="-4.871140">
        <ele>369.417603</ele>
        <time>2010-09-24T08:58:36Z</time>
      </trkpt>
      <trkpt lat="39.936190" lon="-4.871950">
        <ele>369.722412</ele>
        <time>2010-09-24T08:58:37Z</time>
      </trkpt>
      <trkpt lat="39.935800" lon="-4.872410">
        <ele>370.332001</ele>
        <time>2010-09-24T08:58:38Z</time>
      </trkpt>
      <trkpt lat="39.935400" lon="-4.872950">
        <ele>369.722412</ele>
        <time>2010-09-24T08:58:39Z</time>
      </trkpt>
      <trkpt lat="39.933920" lon="-4.875360">
        <ele>368.808014</ele>
        <time>2010-09-24T08:58:40Z</time>
      </trkpt>
      <trkpt lat="39.933090" lon="-4.876620">
        <ele>367.893585</ele>
        <time>2010-09-24T08:58:41Z</time>
      </trkpt>
      <trkpt lat="39.932330" lon="-4.877720">
        <ele>367.893585</ele>
        <time>2010-09-24T08:58:42Z</time>
      </trkpt>
      <trkpt lat="39.932150" lon="-4.877940">
        <ele>369.417603</ele>
        <time>2010-09-24T08:58:43Z</time>
      </trkpt>
      <trkpt lat="39.931420" lon="-4.878700">
        <ele>366.979187</ele>
        <time>2010-09-24T08:58:44Z</time>
      </trkpt>
      <trkpt lat="39.931290" lon="-4.878870">
        <ele>366.369598</ele>
        <time>2010-09-24T08:58:45Z</time>
      </trkpt>
      <trkpt lat="39.931190" lon="-4.879070">
        <ele>364.845612</ele>
        <time>2010-09-24T08:58:46Z</time>
      </trkpt>
      <trkpt lat="39.930900" lon="-4.879840">
        <ele>366.369598</ele>
        <time>2010-09-24T08:58:47Z</time>
      </trkpt>
      <trkpt lat="39.930680" lon="-4.880320">
        <ele>366.064789</ele>
        <time>2010-09-24T08:58:48Z</time>
      </trkpt>
      <trkpt lat="39.930390" lon="-4.880740">
        <ele>364.540802</ele>
        <time>2010-09-24T08:58:49Z</time>
      </trkpt>
      <trkpt lat="39.930550" lon="-4.880510">
        <ele>363.626404</ele>
        <time>2010-09-24T08:58:50Z</time>
      </trkpt>
      <trkpt lat="39.930350" lon="-4.880840">
        <ele>366.369598</ele>
        <time>2010-09-24T08:58:51Z</time>
      </trkpt>
      <trkpt lat="39.929640" lon="-4.882310">
        <ele>367.283997</ele>
        <time>2010-09-24T08:58:52Z</time>
      </trkpt>
      <trkpt lat="39.929290" lon="-4.883130">
        <ele>368.198395</ele>
        <time>2010-09-24T08:58:53Z</time>
      </trkpt>
      <trkpt lat="39.928990" lon="-4.883890">
        <ele>366.064789</ele>
        <time>2010-09-24T08:58:54Z</time>
      </trkpt>
      <trkpt lat="39.928940" lon="-4.884100">
        <ele>366.064789</ele>
        <time>2010-09-24T08:58:55Z</time>
      </trkpt>
      <trkpt lat="39.928930" lon="-4.884330">
        <ele>364.845612</ele>
        <time>2010-09-24T08:58:56Z</time>
      </trkpt>
      <trkpt lat="39.928890" lon="-4.884600">
        <ele>365.455200</ele>
        <time>2010-09-24T08:58:57Z</time>
      </trkpt>
      <trkpt lat="39.927990" lon="-4.887190">
        <ele>363.016815</ele>
        <time>2010-09-24T08:58:58Z</time>
      </trkpt>
      <trkpt lat="39.927850" lon="-4.887420">
        <ele>363.626404</ele>
        <time>2010-09-24T08:58:59Z</time>
      </trkpt>
      <trkpt lat="39.927680" lon="-4.887890">
        <ele>363.016815</ele>
        <time>2010-09-24T08:59:00Z</time>
      </trkpt>
      <trkpt lat="39.927630" lon="-4.888150">
        <ele>363.016815</ele>
        <time>2010-09-24T08:59:01Z</time>
      </trkpt>
      <trkpt lat="39.927530" lon="-4.888380">
        <ele>362.102386</ele>
        <time>2010-09-24T08:59:02Z</time>
      </trkpt>
      <trkpt lat="39.927390" lon="-4.888580">
        <ele>362.102386</ele>
        <time>2010-09-24T08:59:03Z</time>
      </trkpt>
      <trkpt lat="39.925880" lon="-4.892310">
        <ele>366.064789</ele>
        <time>2010-09-24T08:59:04Z</time>
      </trkpt>
      <trkpt lat="39.925400" lon="-4.893320">
        <ele>362.712006</ele>
        <time>2010-09-24T08:59:05Z</time>
      </trkpt>
      <trkpt lat="39.924620" lon="-4.894820">
        <ele>363.626404</ele>
        <time>2010-09-24T08:59:06Z</time>
      </trkpt>
      <trkpt lat="39.924420" lon="-4.895240">
        <ele>363.016815</ele>
        <time>2010-09-24T08:59:07Z</time>
      </trkpt>
      <trkpt lat="39.923420" lon="-4.897570">
        <ele>363.016815</ele>
        <time>2010-09-24T08:59:08Z</time>
      </trkpt>
      <trkpt lat="39.922090" lon="-4.900250">
        <ele>362.102386</ele>
        <time>2010-09-24T08:59:09Z</time>
      </trkpt>
      <trkpt lat="39.921710" lon="-4.901090">
        <ele>362.102386</ele>
        <time>2010-09-24T08:59:10Z</time>
      </trkpt>
      <trkpt lat="39.921440" lon="-4.901900">
        <ele>362.712006</ele>
        <time>2010-09-24T08:59:11Z</time>
      </trkpt>
      <trkpt lat="39.921130" lon="-4.902600">
        <ele>363.016815</ele>
        <time>2010-09-24T08:59:12Z</time>
      </trkpt>
      <trkpt lat="39.920930" lon="-4.903130">
        <ele>363.626404</ele>
        <time>2010-09-24T08:59:13Z</time>
      </trkpt>
      <trkpt lat="39.920430" lon="-4.904570">
        <ele>364.540802</ele>
        <time>2010-09-24T08:59:14Z</time>
      </trkpt>
      <trkpt lat="39.920290" lon="-4.905020">
        <ele>361.187988</ele>
        <time>2010-09-24T08:59:15Z</time>
      </trkpt>
      <trkpt lat="39.919830" lon="-4.906320">
        <ele>360.578400</ele>
        <time>2010-09-24T08:59:16Z</time>
      </trkpt>
      <trkpt lat="39.919350" lon="-4.907890">
        <ele>363.626404</ele>
        <time>2010-09-24T08:59:17Z</time>
      </trkpt>
      <trkpt lat="39.918840" lon="-4.909200">
        <ele>364.845612</ele>
        <time>2010-09-24T08:59:18Z</time>
      </trkpt>
      <trkpt lat="39.918180" lon="-4.911000">
        <ele>363.626404</ele>
        <time>2010-09-24T08:59:19Z</time>
      </trkpt>
      <trkpt lat="39.917940" lon="-4.911510">
        <ele>362.102386</ele>
        <time>2010-09-24T08:59:20Z</time>
      </trkpt>
      <trkpt lat="39.917440" lon="-4.912410">
        <ele>368.198395</ele>
        <time>2010-09-24T08:59:21Z</time>
      </trkpt>
      <trkpt lat="39.917160" lon="-4.912900">
        <ele>371.246399</ele>
        <time>2010-09-24T08:59:22Z</time>
      </trkpt>
      <trkpt lat="39.917000" lon="-4.913120">
        <ele>370.332001</ele>
        <time>2010-09-24T08:59:23Z</time>
      </trkpt>
      <trkpt lat="39.916600" lon="-4.913500">
        <ele>369.417603</ele>
        <time>2010-09-24T08:59:24Z</time>
      </trkpt>
      <trkpt lat="39.916020" lon="-4.913920">
        <ele>365.455200</ele>
        <time>2010-09-24T08:59:25Z</time>
      </trkpt>
      <trkpt lat="39.915900" lon="-4.914100">
        <ele>363.016815</ele>
        <time>2010-09-24T08:59:26Z</time>
      </trkpt>
      <trkpt lat="39.915910" lon="-4.914370">
        <ele>363.931213</ele>
        <time>2010-09-24T08:59:27Z</time>
      </trkpt>
      <trkpt lat="39.915740" lon="-4.914590">
        <ele>364.845612</ele>
        <time>2010-09-24T08:59:28Z</time>
      </trkpt>
      <trkpt lat="39.915440" lon="-4.914930">
        <ele>366.979187</ele>
        <time>2010-09-24T08:59:29Z</time>
      </trkpt>
      <trkpt lat="39.914750" lon="-4.915800">
        <ele>369.722412</ele>
        <time>2010-09-24T08:59:30Z</time>
      </trkpt>
      <trkpt lat="39.913920" lon="-4.916930">
        <ele>367.893585</ele>
        <time>2010-09-24T08:59:31Z</time>
      </trkpt>
      <trkpt lat="39.913190" lon="-4.917980">
        <ele>367.893585</ele>
        <time>2010-09-24T08:59:32Z</time>
      </trkpt>
      <trkpt lat="39.912470" lon="-4.919130">
        <ele>369.417603</ele>
        <time>2010-09-24T08:59:33Z</time>
      </trkpt>
      <trkpt lat="39.911650" lon="-4.920540">
        <ele>367.893585</ele>
        <time>2010-09-24T08:59:34Z</time>
      </trkpt>
      <trkpt lat="39.911080" lon="-4.921250">
        <ele>368.198395</ele>
        <time>2010-09-24T08:59:35Z</time>
      </trkpt>
      <trkpt lat="39.910760" lon="-4.921680">
        <ele>363.931213</ele>
        <time>2010-09-24T08:59:36Z</time>
      </trkpt>
      <trkpt lat="39.910470" lon="-4.922130">
        <ele>363.016815</ele>
        <time>2010-09-24T08:59:37Z</time>
      </trkpt>
      <trkpt lat="39.910220" lon="-4.922650">
        <ele>361.492798</ele>
        <time>2010-09-24T08:59:38Z</time>
      </trkpt>
      <trkpt lat="39.909800" lon="-4.924050">
        <ele>364.845612</ele>
        <time>2010-09-24T08:59:39Z</time>
      </trkpt>
      <trkpt lat="39.908990" lon="-4.926380">
        <ele>366.064789</ele>
        <time>2010-09-24T08:59:40Z</time>
      </trkpt>
      <trkpt lat="39.908700" lon="-4.927160">
        <ele>366.064789</ele>
        <time>2010-09-24T08:59:41Z</time>
      </trkpt>
      <trkpt lat="39.908290" lon="-4.928440">
        <ele>366.979187</ele>
        <time>2010-09-24T08:59:42Z</time>
      </trkpt>
      <trkpt lat="39.907980" lon="-4.929490">
        <ele>360.578400</ele>
        <time>2010-09-24T08:59:43Z</time>
      </trkpt>
      <trkpt lat="39.907890" lon="-4.929660">
        <ele>361.187988</ele>
        <time>2010-09-24T08:59:44Z</time>
      </trkpt>
      <trkpt lat="39.907010" lon="-4.931730">
        <ele>367.283997</ele>
        <time>2010-09-24T08:59:45Z</time>
      </trkpt>
      <trkpt lat="39.906200" lon="-4.933370">
        <ele>370.332001</ele>
        <time>2010-09-24T08:59:46Z</time>
      </trkpt>
      <trkpt lat="39.905660" lon="-4.934620">
        <ele>371.551208</ele>
        <time>2010-09-24T08:59:47Z</time>
      </trkpt>
      <trkpt lat="39.905550" lon="-4.934930">
        <ele>370.636810</ele>
        <time>2010-09-24T08:59:48Z</time>
      </trkpt>
      <trkpt lat="39.905160" lon="-4.935860">
        <ele>372.160797</ele>
        <time>2010-09-24T08:59:49Z</time>
      </trkpt>
      <trkpt lat="39.904500" lon="-4.937190">
        <ele>371.551208</ele>
        <time>2010-09-24T08:59:50Z</time>
      </trkpt>
      <trkpt lat="39.904040" lon="-4.938370">
        <ele>370.332001</ele>
        <time>2010-09-24T08:59:51Z</time>
      </trkpt>
      <trkpt lat="39.903980" lon="-4.938560">
        <ele>368.808014</ele>
        <time>2010-09-24T08:59:52Z</time>
      </trkpt>
      <trkpt lat="39.903550" lon="-4.939570">
        <ele>368.808014</ele>
        <time>2010-09-24T08:59:53Z</time>
      </trkpt>
      <trkpt lat="39.903210" lon="-4.940250">
        <ele>368.808014</ele>
        <time>2010-09-24T08:59:54Z</time>
      </trkpt>
      <trkpt lat="39.902780" lon="-4.940950">
        <ele>368.808014</ele>
        <time>2010-09-24T08:59:55Z</time>
      </trkpt>
      <trkpt lat="39.902630" lon="-4.941240">
        <ele>368.198395</ele>
        <time>2010-09-24T08:59:56Z</time>
      </trkpt>
      <trkpt lat="39.902430" lon="-4.941730">
        <ele>368.808014</ele>
        <time>2010-09-24T08:59:57Z</time>
      </trkpt>
      <trkpt lat="39.902000" lon="-4.942520">
        <ele>368.198395</ele>
        <time>2010-09-24T08:59:58Z</time>
      </trkpt>
      <trkpt lat="39.901310" lon="-4.943910">
        <ele>368.198395</ele>
        <time>2010-09-24T08:59:59Z</time>
      </trkpt>
      <trkpt lat="39.900720" lon="-4.945300">
        <ele>367.283997</ele>
        <time>2010-09-24T09:00:00Z</time>
      </trkpt>
      <trkpt lat="39.900600" lon="-4.945540">
        <ele>368.198395</ele>
        <time>2010-09-24T09:00:01Z</time>
      </trkpt>
      <trkpt lat="39.899610" lon="-4.947120">
        <ele>366.979187</ele>
        <time>2010-09-24T09:00:02Z</time>
      </trkpt>
      <trkpt lat="39.898670" lon="-4.948890">
        <ele>366.369598</ele>
        <time>2010-09-24T09:00:03Z</time>
      </trkpt>
      <trkpt lat="39.898190" lon="-4.949720">
        <ele>364.845612</ele>
        <time>2010-09-24T09:00:04Z</time>
      </trkpt>
      <trkpt lat="39.897830" lon="-4.950220">
        <ele>365.455200</ele>
        <time>2010-09-24T09:00:05Z</time>
      </trkpt>
      <trkpt lat="39.897630" lon="-4.950420">
        <ele>364.540802</ele>
        <time>2010-09-24T09:00:06Z</time>
      </trkpt>
      <trkpt lat="39.897360" lon="-4.950750">
        <ele>362.102386</ele>
        <time>2010-09-24T09:00:07Z</time>
      </trkpt>
      <trkpt lat="39.897410" lon="-4.950680">
        <ele>363.626404</ele>
        <time>2010-09-24T09:00:08Z</time>
      </trkpt>
      <trkpt lat="39.897140" lon="-4.951130">
        <ele>363.931213</ele>
        <time>2010-09-24T09:00:09Z</time>
      </trkpt>
      <trkpt lat="39.896720" lon="-4.951730">
        <ele>363.931213</ele>
        <time>2010-09-24T09:00:10Z</time>
      </trkpt>
      <trkpt lat="39.896600" lon="-4.951940">
        <ele>363.626404</ele>
        <time>2010-09-24T09:00:11Z</time>
      </trkpt>
      <trkpt lat="39.896230" lon="-4.952930">
        <ele>363.626404</ele>
        <time>2010-09-24T09:00:12Z</time>
      </trkpt>
      <trkpt lat="39.896110" lon="-4.953160">
        <ele>363.016815</ele>
        <time>2010-09-24T09:00:13Z</time>
      </trkpt>
      <trkpt lat="39.895940" lon="-4.953310">
        <ele>363.016815</ele>
        <time>2010-09-24T09:00:14Z</time>
      </trkpt>
      <trkpt lat="39.895530" lon="-4.953500">
        <ele>362.102386</ele>
        <time>2010-09-24T09:00:15Z</time>
      </trkpt>
      <trkpt lat="39.895170" lon="-4.953610">
        <ele>360.578400</ele>
        <time>2010-09-24T09:00:16Z</time>
      </trkpt>
      <trkpt lat="39.895150" lon="-4.953830">
        <ele>361.492798</ele>
        <time>2010-09-24T09:00:17Z</time>
      </trkpt>
      <trkpt lat="39.895050" lon="-4.954050">
        <ele>361.187988</ele>
        <time>2010-09-24T09:00:18Z</time>
      </trkpt>
      <trkpt lat="39.894720" lon="-4.954590">
        <ele>361.492798</ele>
        <time>2010-09-24T09:00:19Z</time>
      </trkpt>
      <trkpt lat="39.894060" lon="-4.955430">
        <ele>363.016815</ele>
        <time>2010-09-24T09:00:20Z</time>
      </trkpt>
      <trkpt lat="39.893790" lon="-4.955840">
        <ele>364.540802</ele>
        <time>2010-09-24T09:00:21Z</time>
      </trkpt>
      <trkpt lat="39.892400" lon="-4.957700">
        <ele>360.578400</ele>
        <time>2010-09-24T09:00:22Z</time>
      </trkpt>
      <trkpt lat="39.892020" lon="-4.957960">
        <ele>362.102386</ele>
        <time>2010-09-24T09:00:23Z</time>
      </trkpt>
      <trkpt lat="39.891420" lon="-4.958200">
        <ele>361.187988</ele>
        <time>2010-09-24T09:00:24Z</time>
      </trkpt>
      <trkpt lat="39.890450" lon="-4.958760">
        <ele>359.664001</ele>
        <time>2010-09-24T09:00:25Z</time>
      </trkpt>
      <trkpt lat="39.889630" lon="-4.959260">
        <ele>359.664001</ele>
        <time>2010-09-24T09:00:26Z</time>
      </trkpt>
      <trkpt lat="39.889190" lon="-4.959580">
        <ele>359.054413</ele>
        <time>2010-09-24T09:00:27Z</time>
      </trkpt>
      <trkpt lat="39.888600" lon="-4.960050">
        <ele>359.664001</ele>
        <time>2010-09-24T09:00:28Z</time>
      </trkpt>
      <trkpt lat="39.887800" lon="-4.960730">
        <ele>358.749603</ele>
        <time>2010-09-24T09:00:29Z</time>
      </trkpt>
      <trkpt lat="39.887330" lon="-4.961370">
        <ele>359.054413</ele>
        <time>2010-09-24T09:00:30Z</time>
      </trkpt>
      <trkpt lat="39.887220" lon="-4.961570">
        <ele>359.664001</ele>
        <time>2010-09-24T09:00:31Z</time>
      </trkpt>
      <trkpt lat="39.887120" lon="-4.961810">
        <ele>359.664001</ele>
        <time>2010-09-24T09:00:32Z</time>
      </trkpt>
      <trkpt lat="39.886860" lon="-4.962250">
        <ele>359.664001</ele>
        <time>2010-09-24T09:00:33Z</time>
      </trkpt>
      <trkpt lat="39.886620" lon="-4.962710">
        <ele>359.664001</ele>
        <time>2010-09-24T09:00:34Z</time>
      </trkpt>
      <trkpt lat="39.886360" lon="-4.963190">
        <ele>359.664001</ele>
        <time>2010-09-24T09:00:35Z</time>
      </trkpt>
      <trkpt lat="39.885930" lon="-4.964090">
        <ele>361.187988</ele>
        <time>2010-09-24T09:00:36Z</time>
      </trkpt>
      <trkpt lat="39.885780" lon="-4.964310">
        <ele>360.578400</ele>
        <time>2010-09-24T09:00:37Z</time>
      </trkpt>
      <trkpt lat="39.885620" lon="-4.964490">
        <ele>360.273590</ele>
        <time>2010-09-24T09:00:38Z</time>
      </trkpt>
      <trkpt lat="39.885400" lon="-4.964660">
        <ele>361.492798</ele>
        <time>2010-09-24T09:00:39Z</time>
      </trkpt>
      <trkpt lat="39.884890" lon="-4.965290">
        <ele>359.664001</ele>
        <time>2010-09-24T09:00:40Z</time>
      </trkpt>
      <trkpt lat="39.884870" lon="-4.965360">
        <ele>359.664001</ele>
        <time>2010-09-24T09:00:41Z</time>
      </trkpt>
      <trkpt lat="39.884940" lon="-4.965660">
        <ele>359.054413</ele>
        <time>2010-09-24T09:00:42Z</time>
      </trkpt>
      <trkpt lat="39.885190" lon="-4.966690">
        <ele>361.187988</ele>
        <time>2010-09-24T09:00:43Z</time>
      </trkpt>
      <trkpt lat="39.885480" lon="-4.967730">
        <ele>362.712006</ele>
        <time>2010-09-24T09:00:44Z</time>
      </trkpt>
      <trkpt lat="39.885680" lon="-4.968570">
        <ele>362.712006</ele>
        <time>2010-09-24T09:00:45Z</time>
      </trkpt>
      <trkpt lat="39.885720" lon="-4.968850">
        <ele>363.016815</ele>
        <time>2010-09-24T09:00:46Z</time>
      </trkpt>
      <trkpt lat="39.885720" lon="-4.969100">
        <ele>363.016815</ele>
        <time>2010-09-24T09:00:47Z</time>
      </trkpt>
      <trkpt lat="39.885640" lon="-4.969400">
        <ele>363.931213</ele>
        <time>2010-09-24T09:00:48Z</time>
      </trkpt>
      <trkpt lat="39.885510" lon="-4.969640">
        <ele>364.845612</ele>
        <time>2010-09-24T09:00:49Z</time>
      </trkpt>
      <trkpt lat="39.885370" lon="-4.969820">
        <ele>366.369598</ele>
        <time>2010-09-24T09:00:50Z</time>
      </trkpt>
      <trkpt lat="39.885270" lon="-4.970040">
        <ele>366.979187</ele>
        <time>2010-09-24T09:00:51Z</time>
      </trkpt>
      <trkpt lat="39.885160" lon="-4.970160">
        <ele>368.198395</ele>
        <time>2010-09-24T09:00:52Z</time>
      </trkpt>
      <trkpt lat="39.884510" lon="-4.970210">
        <ele>370.636810</ele>
        <time>2010-09-24T09:00:53Z</time>
      </trkpt>
      <trkpt lat="39.884270" lon="-4.970270">
        <ele>371.551208</ele>
        <time>2010-09-24T09:00:54Z</time>
      </trkpt>
      <trkpt lat="39.884050" lon="-4.970410">
        <ele>373.684814</ele>
        <time>2010-09-24T09:00:55Z</time>
      </trkpt>
      <trkpt lat="39.883860" lon="-4.970630">
        <ele>374.599213</ele>
        <time>2010-09-24T09:00:56Z</time>
      </trkpt>
      <trkpt lat="39.883710" lon="-4.970930">
        <ele>377.342407</ele>
        <time>2010-09-24T09:00:57Z</time>
      </trkpt>
      <trkpt lat="39.883650" lon="-4.971280">
        <ele>377.342407</ele>
        <time>2010-09-24T09:00:58Z</time>
      </trkpt>
      <trkpt lat="39.883660" lon="-4.971610">
        <ele>377.342407</ele>
        <time>2010-09-24T09:00:59Z</time>
      </trkpt>
      <trkpt lat="39.883740" lon="-4.971910">
        <ele>377.342407</ele>
        <time>2010-09-24T09:01:00Z</time>
      </trkpt>
      <trkpt lat="39.884070" lon="-4.972850">
        <ele>378.866394</ele>
        <time>2010-09-24T09:01:01Z</time>
      </trkpt>
      <trkpt lat="39.884110" lon="-4.973160">
        <ele>379.476013</ele>
        <time>2010-09-24T09:01:02Z</time>
      </trkpt>
      <trkpt lat="39.884010" lon="-4.973470">
        <ele>381.304810</ele>
        <time>2010-09-24T09:01:03Z</time>
      </trkpt>
      <trkpt lat="39.883910" lon="-4.973710">
        <ele>381.304810</ele>
        <time>2010-09-24T09:01:04Z</time>
      </trkpt>
      <trkpt lat="39.883770" lon="-4.973910">
        <ele>382.828796</ele>
        <time>2010-09-24T09:01:05Z</time>
      </trkpt>
      <trkpt lat="39.883570" lon="-4.974020">
        <ele>384.048004</ele>
        <time>2010-09-24T09:01:06Z</time>
      </trkpt>
      <trkpt lat="39.883210" lon="-4.974320">
        <ele>388.619995</ele>
        <time>2010-09-24T09:01:07Z</time>
      </trkpt>
      <trkpt lat="39.882640" lon="-4.974860">
        <ele>391.972809</ele>
        <time>2010-09-24T09:01:08Z</time>
      </trkpt>
      <trkpt lat="39.882480" lon="-4.975070">
        <ele>391.363190</ele>
        <time>2010-09-24T09:01:09Z</time>
      </trkpt>
      <trkpt lat="39.882360" lon="-4.975290">
        <ele>392.277588</ele>
        <time>2010-09-24T09:01:10Z</time>
      </trkpt>
      <trkpt lat="39.882280" lon="-4.975520">
        <ele>392.277588</ele>
        <time>2010-09-24T09:01:11Z</time>
      </trkpt>
      <trkpt lat="39.882070" lon="-4.975960">
        <ele>393.801605</ele>
        <time>2010-09-24T09:01:12Z</time>
      </trkpt>
      <trkpt lat="39.881780" lon="-4.976640">
        <ele>391.058411</ele>
        <time>2010-09-24T09:01:13Z</time>
      </trkpt>
      <trkpt lat="39.881550" lon="-4.977120">
        <ele>388.924805</ele>
        <time>2010-09-24T09:01:14Z</time>
      </trkpt>
      <trkpt lat="39.881400" lon="-4.977280">
        <ele>388.924805</ele>
        <time>2010-09-24T09:01:15Z</time>
      </trkpt>
      <trkpt lat="39.881260" lon="-4.977370">
        <ele>388.924805</ele>
        <time>2010-09-24T09:01:16Z</time>
      </trkpt>
      <trkpt lat="39.881320" lon="-4.977610">
        <ele>389.534393</ele>
        <time>2010-09-24T09:01:17Z</time>
      </trkpt>
      <trkpt lat="39.881280" lon="-4.977920">
        <ele>390.448792</ele>
        <time>2010-09-24T09:01:18Z</time>
      </trkpt>
      <trkpt lat="39.881310" lon="-4.978210">
        <ele>391.363190</ele>
        <time>2010-09-24T09:01:19Z</time>
      </trkpt>
      <trkpt lat="39.881230" lon="-4.978510">
        <ele>391.363190</ele>
        <time>2010-09-24T09:01:20Z</time>
      </trkpt>
      <trkpt lat="39.881070" lon="-4.978700">
        <ele>391.972809</ele>
        <time>2010-09-24T09:01:21Z</time>
      </trkpt>
      <trkpt lat="39.881060" lon="-4.978850">
        <ele>391.363190</ele>
        <time>2010-09-24T09:01:22Z</time>
      </trkpt>
      <trkpt lat="39.881020" lon="-4.978850">
        <ele>391.058411</ele>
        <time>2010-09-24T09:01:23Z</time>
      </trkpt>
      <trkpt lat="39.881030" lon="-4.979070">
        <ele>406.298401</ele>
        <time>2010-09-24T09:01:24Z</time>
      </trkpt>
      <trkpt lat="39.88121" lon="-4.97834">
        <ele>394.74</ele>
      </trkpt>
      <trkpt lat="39.88103" lon="-4.97881">
        <ele>395.48</ele>
      </trkpt>
      <trkpt lat="39.881080000000004" lon="-4.979030000000001">
        <ele>395.55</ele>
      </trkpt>
      <trkpt lat="39.881040000000006" lon="-4.97942">
        <ele>394.1</ele>
      </trkpt>
      <trkpt lat="39.88105" lon="-4.979640000000001">
        <ele>394.1</ele>
      </trkpt>
      <trkpt lat="39.88111000000001" lon="-4.98008">
        <ele>392.47</ele>
      </trkpt>
      <trkpt lat="39.881130000000006" lon="-4.9805600000000005">
        <ele>390.66</ele>
      </trkpt>
      <trkpt lat="39.88107" lon="-4.980580000000001">
        <ele>390.66</ele>
      </trkpt>
      <trkpt lat="39.8811" lon="-4.980770000000001">
        <ele>389.09000000000003</ele>
      </trkpt>
      <trkpt lat="39.88089" lon="-4.98083">
        <ele>389.05</ele>
      </trkpt>
      <trkpt lat="39.880790000000005" lon="-4.98104">
        <ele>388.91</ele>
      </trkpt>
      <trkpt lat="39.88062" lon="-4.981240000000001">
        <ele>388.29</ele>
      </trkpt>
      <trkpt lat="39.880630000000004" lon="-4.981400000000001">
        <ele>388.73</ele>
      </trkpt>
      <trkpt lat="39.88047" lon="-4.98242">
        <ele>391.75000000000006</ele>
      </trkpt>
      <trkpt lat="39.88045334163693" lon="-4.983403333823467">
        <ele>392.92</ele>
      </trkpt>
      <trkpt lat="39.88043667497005" lon="-4.984386667169048">
        <ele>391.92</ele>
      </trkpt>
      <trkpt lat="39.88042" lon="-4.9853700000000005">
        <ele>390.85</ele>
      </trkpt>
      <trkpt lat="39.880410000000005" lon="-4.9853700000000005">
        <ele>390.79</ele>
      </trkpt>
      <trkpt lat="39.880300000000005" lon="-4.98545">
        <ele>390.06</ele>
      </trkpt>
      <trkpt lat="39.88018500184056" lon="-4.986115001452255">
        <ele>386.89</ele>
      </trkpt>
      <trkpt lat="39.88007" lon="-4.98678">
        <ele>383.51</ele>
      </trkpt>
      <trkpt lat="39.880280000000006" lon="-4.986960000000001">
        <ele>384.44</ele>
      </trkpt>
      <trkpt lat="39.88042" lon="-4.98766">
        <ele>383.3</ele>
      </trkpt>
      <trkpt lat="39.88051" lon="-4.98789">
        <ele>383.12</ele>
      </trkpt>
      <trkpt lat="39.880840000000006" lon="-4.9884">
        <ele>384.04</ele>
      </trkpt>
      <trkpt lat="39.880950000000006" lon="-4.98922">
        <ele>384.95</ele>
      </trkpt>
      <trkpt lat="39.88129" lon="-4.989240000000001">
        <ele>386.19</ele>
      </trkpt>
      <trkpt lat="39.881165002318305" lon="-4.989975001347776">
        <ele>386.11</ele>
      </trkpt>
      <trkpt lat="39.881040000000006" lon="-4.99071">
        <ele>386.59000000000003</ele>
      </trkpt>
      <trkpt lat="39.88085" lon="-4.99139">
        <ele>388.04</ele>
      </trkpt>
      <trkpt lat="39.8808" lon="-4.991980000000001">
        <ele>388.66</ele>
      </trkpt>
      <trkpt lat="39.880720000000004" lon="-4.992190000000001">
        <ele>389.37000000000006</ele>
      </trkpt>
      <trkpt lat="39.880720000000004" lon="-4.9922">
        <ele>389.38000000000005</ele>
      </trkpt>
      <trkpt lat="39.88058" lon="-4.99254">
        <ele>391.09000000000003</ele>
      </trkpt>
      <trkpt lat="39.880720003551744" lon="-4.993449998116178">
        <ele>391.49</ele>
      </trkpt>
      <trkpt lat="39.880860000000006" lon="-4.99436">
        <ele>393.65000000000003</ele>
      </trkpt>
      <trkpt lat="39.880862513599844" lon="-4.995387499919179">
        <ele>393.5</ele>
      </trkpt>
      <trkpt lat="39.88086501813318" lon="-4.996414999913552">
        <ele>393.81000000000006</ele>
      </trkpt>
      <trkpt lat="39.880867513599995" lon="-4.997442499982845">
        <ele>393.86</ele>
      </trkpt>
      <trkpt lat="39.88087" lon="-4.99847">
        <ele>394.47</ele>
      </trkpt>
      <trkpt lat="39.88091500469569" lon="-4.999514999469727">
        <ele>394.57000000000005</ele>
      </trkpt>
      <trkpt lat="39.88096" lon="-5.00056">
        <ele>394.84000000000003</ele>
      </trkpt>
      <trkpt lat="39.88104333954409" lon="-5.001409997996681">
        <ele>394.65000000000003</ele>
      </trkpt>
      <trkpt lat="39.88112667288359" lon="-5.002259998059419">
        <ele>393.77</ele>
      </trkpt>
      <trkpt lat="39.88121" lon="-5.00311">
        <ele>393.44</ele>
      </trkpt>
      <trkpt lat="39.881340005729626" lon="-5.003926663583249">
        <ele>394.08000000000004</ele>
      </trkpt>
      <trkpt lat="39.881470005731735" lon="-5.0047433302631354">
        <ele>394.27</ele>
      </trkpt>
      <trkpt lat="39.881600000000006" lon="-5.00556">
        <ele>394.37000000000006</ele>
      </trkpt>
      <trkpt lat="39.88180574268947" lon="-5.006609981098617">
        <ele>394.69000000000005</ele>
      </trkpt>
      <trkpt lat="39.88201147591125" lon="-5.007659968498067">
        <ele>395.24</ele>
      </trkpt>
      <trkpt lat="39.882217199665185" lon="-5.008709962198144">
        <ele>396.79</ele>
      </trkpt>
      <trkpt lat="39.88242291395116" lon="-5.009759962198642">
        <ele>396.89</ele>
      </trkpt>
      <trkpt lat="39.88262861876907" lon="-5.010809968499355">
        <ele>397.06</ele>
      </trkpt>
      <trkpt lat="39.88283431411876" lon="-5.011859981100076">
        <ele>397.18</ele>
      </trkpt>
      <trkpt lat="39.88304" lon="-5.012910000000001">
        <ele>398.19000000000005</ele>
      </trkpt>
      <trkpt lat="39.88322751019787" lon="-5.01379999267133">
        <ele>398.36</ele>
      </trkpt>
      <trkpt lat="39.883415013593385" lon="-5.014689990210398">
        <ele>398.84000000000003</ele>
      </trkpt>
      <trkpt lat="39.8836025101865" lon="-5.015579992617088">
        <ele>399.45000000000005</ele>
      </trkpt>
      <trkpt lat="39.883790000000005" lon="-5.01647">
        <ele>399.25000000000006</ele>
      </trkpt>
      <trkpt lat="39.88379000152017" lon="-5.01706499967117">
        <ele>398.70000000000005</ele>
      </trkpt>
      <trkpt lat="39.883790000000005" lon="-5.01766">
        <ele>399.27</ele>
      </trkpt>
      <trkpt lat="39.88404333826777" lon="-5.018419994306063">
        <ele>399.70000000000005</ele>
      </trkpt>
      <trkpt lat="39.88429667157523" lon="-5.019179994228343">
        <ele>399.81000000000006</ele>
      </trkpt>
      <trkpt lat="39.884550000000004" lon="-5.01994">
        <ele>400.17</ele>
      </trkpt>
      <trkpt lat="39.88489892316371" lon="-5.020938848223079">
        <ele>399.19000000000005</ele>
      </trkpt>
      <trkpt lat="39.88524783775919" lon="-5.021937706612731">
        <ele>399.08000000000004</ele>
      </trkpt>
      <trkpt lat="39.885596743786245" lon="-5.022936575168938">
        <ele>397.82</ele>
      </trkpt>
      <trkpt lat="39.885945641244696" lon="-5.023935453891677">
        <ele>396.38</ele>
      </trkpt>
      <trkpt lat="39.88629453013433" lon="-5.024934342780929">
        <ele>396.8</ele>
      </trkpt>
      <trkpt lat="39.88664341045496" lon="-5.025933241836674">
        <ele>398.38</ele>
      </trkpt>
      <trkpt lat="39.88699228220641" lon="-5.02693215105889">
        <ele>399.09000000000003</ele>
      </trkpt>
      <trkpt lat="39.88734114538846" lon="-5.027931070447559">
        <ele>399.1</ele>
      </trkpt>
      <trkpt lat="39.887690000000006" lon="-5.028930000000001">
        <ele>398.8</ele>
      </trkpt>
      <trkpt lat="39.888013340892655" lon="-5.029866657902444">
        <ele>399.19000000000005</ele>
      </trkpt>
      <trkpt lat="39.88833667425067" lon="-5.030803324640466">
        <ele>399.53000000000003</ele>
      </trkpt>
      <trkpt lat="39.88866" lon="-5.03174">
        <ele>400.32</ele>
      </trkpt>
      <trkpt lat="39.888960008665435" lon="-5.032559989243851">
        <ele>400.37000000000006</ele>
      </trkpt>
      <trkpt lat="39.889260011556324" lon="-5.03337998566483">
        <ele>400.25000000000006</ele>
      </trkpt>
      <trkpt lat="39.88956000867254" lon="-5.034199989262938">
        <ele>400.04</ele>
      </trkpt>
      <trkpt lat="39.889860000000006" lon="-5.03502">
        <ele>400.04</ele>
      </trkpt>
      <trkpt lat="39.889880000000005" lon="-5.03554">
        <ele>400.04</ele>
      </trkpt>
      <trkpt lat="39.89022000000001" lon="-5.03622">
        <ele>400.29</ele>
      </trkpt>
      <trkpt lat="39.890313344239736" lon="-5.037346663655634">
        <ele>401.53000000000003</ele>
      </trkpt>
      <trkpt lat="39.89040667757781" lon="-5.038473330379505">
        <ele>402.0</ele>
      </trkpt>
      <trkpt lat="39.8905" lon="-5.0396">
        <ele>402.68</ele>
      </trkpt>
      <trkpt lat="39.8905" lon="-5.04013">
        <ele>402.82</ele>
      </trkpt>
      <trkpt lat="39.89065000557939" lon="-5.041269997496012">
        <ele>402.02000000000004</ele>
      </trkpt>
      <trkpt lat="39.890800000000006" lon="-5.04241">
        <ele>402.90000000000003</ele>
      </trkpt>
      <trkpt lat="39.89088304350548" lon="-5.043470988434291">
        <ele>404.03000000000003</ele>
      </trkpt>
      <trkpt lat="39.89096607734318" lon="-5.044531979439169">
        <ele>405.39000000000004</ele>
      </trkpt>
      <trkpt lat="39.891049101513055" lon="-5.045592973014347">
        <ele>406.12</ele>
      </trkpt>
      <trkpt lat="39.89113211601505" lon="-5.046653969159542">
        <ele>405.72</ele>
      </trkpt>
      <trkpt lat="39.89121512084913" lon="-5.047714967874465">
        <ele>407.03000000000003</ele>
      </trkpt>
      <trkpt lat="39.89129811601524" lon="-5.048775969158834">
        <ele>409.46000000000004</ele>
      </trkpt>
      <trkpt lat="39.89138110151331" lon="-5.0498369730123605">
        <ele>410.47</ele>
      </trkpt>
      <trkpt lat="39.8914640773433" lon="-5.05089797943476">
        <ele>412.18000000000006</ele>
      </trkpt>
      <trkpt lat="39.89154704350516" lon="-5.051958988425748">
        <ele>408.71000000000004</ele>
      </trkpt>
      <trkpt lat="39.891630000000006" lon="-5.05302">
        <ele>404.48</ele>
      </trkpt>
      <trkpt lat="39.891727538297985" lon="-5.054148738767867">
        <ele>404.40000000000003</ele>
      </trkpt>
      <trkpt lat="39.89182506565401" lon="-5.055277480747902">
        <ele>404.52000000000004</ele>
      </trkpt>
      <trkpt lat="39.891922582068034" lon="-5.056406225939768">
        <ele>401.64000000000004</ele>
      </trkpt>
      <trkpt lat="39.892020087539976" lon="-5.057534974343124">
        <ele>397.44</ele>
      </trkpt>
      <trkpt lat="39.89211758206978" lon="-5.0586637259576275">
        <ele>396.26000000000005</ele>
      </trkpt>
      <trkpt lat="39.89221506565735" lon="-5.059792480782941">
        <ele>400.38</ele>
      </trkpt>
      <trkpt lat="39.892312538302654" lon="-5.060921238818725">
        <ele>399.8</ele>
      </trkpt>
      <trkpt lat="39.892410000000005" lon="-5.06205">
        <ele>395.31000000000006</ele>
      </trkpt>
      <trkpt lat="39.892320000000005" lon="-5.0627">
        <ele>394.20000000000005</ele>
      </trkpt>
      <trkpt lat="39.89222" lon="-5.06304">
        <ele>393.40000000000003</ele>
      </trkpt>
      <trkpt lat="39.89166501688409" lon="-5.063926702555382">
        <ele>392.08000000000004</ele>
      </trkpt>
      <trkpt lat="39.89111002701585" lon="-5.06481339075225">
        <ele>391.69000000000005</ele>
      </trkpt>
      <trkpt lat="39.89055503039549" lon="-5.065700064590943">
        <ele>390.87000000000006</ele>
      </trkpt>
      <trkpt lat="39.890000027023255" lon="-5.066586724071801">
        <ele>390.81000000000006</ele>
      </trkpt>
      <trkpt lat="39.88944501689941" lon="-5.0674733691951666">
        <ele>390.81000000000006</ele>
      </trkpt>
      <trkpt lat="39.88889" lon="-5.06836">
        <ele>390.81000000000006</ele>
      </trkpt>
      <trkpt lat="39.888205001672375" lon="-5.068985006249657">
        <ele>390.81000000000006</ele>
      </trkpt>
      <trkpt lat="39.88752" lon="-5.069610000000001">
        <ele>390.81000000000006</ele>
      </trkpt>
      <trkpt lat="39.88676000014703" lon="-5.069750003107887">
        <ele>390.81000000000006</ele>
      </trkpt>
      <trkpt lat="39.88600000012572" lon="-5.0698900031117615">
        <ele>390.81000000000006</ele>
      </trkpt>
      <trkpt lat="39.88524" lon="-5.07003">
        <ele>390.81000000000006</ele>
      </trkpt>
      <trkpt lat="39.88446500048627" lon="-5.070360003722212">
        <ele>390.81000000000006</ele>
      </trkpt>
      <trkpt lat="39.88369" lon="-5.070690000000001">
        <ele>390.81000000000006</ele>
      </trkpt>
      <trkpt lat="39.883075003049896" lon="-5.071530007506865">
        <ele>390.81000000000006</ele>
      </trkpt>
      <trkpt lat="39.88246" lon="-5.07237">
        <ele>390.81000000000006</ele>
      </trkpt>
      <trkpt lat="39.88203000804974" lon="-5.073340012234648">
        <ele>390.81000000000006</ele>
      </trkpt>
      <trkpt lat="39.88160000801917" lon="-5.074310012303426">
        <ele>390.81000000000006</ele>
      </trkpt>
      <trkpt lat="39.881170000000004" lon="-5.07528">
        <ele>379.73</ele>
      </trkpt>
      <trkpt lat="39.88076333615057" lon="-5.075860006981598">
        <ele>379.73</ele>
      </trkpt>
      <trkpt lat="39.88035666941221" lon="-5.076440007083765">
        <ele>379.73</ele>
      </trkpt>
      <trkpt lat="39.87995" lon="-5.07702">
        <ele>379.73</ele>
      </trkpt>
      <trkpt lat="39.87927834346108" lon="-5.077706700289175">
        <ele>379.73</ele>
      </trkpt>
      <trkpt lat="39.8786066828727" lon="-5.078393387126769">
        <ele>379.73</ele>
      </trkpt>
      <trkpt lat="39.87793501823504" lon="-5.079080060513283">
        <ele>379.73</ele>
      </trkpt>
      <trkpt lat="39.87726334954824" lon="-5.079766720449219">
        <ele>379.73</ele>
      </trkpt>
      <trkpt lat="39.87659167681251" lon="-5.08045336693508">
        <ele>379.73</ele>
      </trkpt>
      <trkpt lat="39.87592" lon="-5.08114">
        <ele>379.73</ele>
      </trkpt>
      <trkpt lat="39.87537666794797" lon="-5.081526672794893">
        <ele>379.73</ele>
      </trkpt>
      <trkpt lat="39.87483333461201" lon="-5.0819133394633536">
        <ele>379.73</ele>
      </trkpt>
      <trkpt lat="39.87429" lon="-5.0823">
        <ele>379.73</ele>
      </trkpt>
      <trkpt lat="39.873662504572486" lon="-5.082895016318614">
        <ele>379.73</ele>
      </trkpt>
      <trkpt lat="39.873035006104764" lon="-5.083490021750136">
        <ele>379.73</ele>
      </trkpt>
      <trkpt lat="39.87240750459691" lon="-5.084085016294956">
        <ele>379.73</ele>
      </trkpt>
      <trkpt lat="39.87178" lon="-5.0846800000000005">
        <ele>379.73</ele>
      </trkpt>
      <trkpt lat="39.871790000000004" lon="-5.0846800000000005">
        <ele>376.27000000000004</ele>
      </trkpt>
      <trkpt lat="39.87214" lon="-5.08572">
        <ele>372.3</ele>
      </trkpt>
      <trkpt lat="39.87229000000001" lon="-5.08671">
        <ele>372.32000000000005</ele>
      </trkpt>
      <trkpt lat="39.87262000123382" lon="-5.087249997372214">
        <ele>375.17</ele>
      </trkpt>
      <trkpt lat="39.87295" lon="-5.08779">
        <ele>375.20000000000005</ele>
      </trkpt>
      <trkpt lat="39.87353" lon="-5.08819">
        <ele>374.32000000000005</ele>
      </trkpt>
      <trkpt lat="39.87435" lon="-5.0883">
        <ele>375.92</ele>
      </trkpt>
      <trkpt lat="39.87509" lon="-5.08802">
        <ele>376.92</ele>
      </trkpt>
      <trkpt lat="39.875550000000004" lon="-5.08807">
        <ele>377.97</ele>
      </trkpt>
      <trkpt lat="39.87595000027783" lon="-5.088349998325795">
        <ele>378.34</ele>
      </trkpt>
      <trkpt lat="39.87635" lon="-5.08863">
        <ele>379.55000000000007</ele>
      </trkpt>
      <trkpt lat="39.87668" lon="-5.08877">
        <ele>380.19</ele>
      </trkpt>
      <trkpt lat="39.877280000105344" lon="-5.088864999179402">
        <ele>379.90000000000003</ele>
      </trkpt>
      <trkpt lat="39.877880000000005" lon="-5.08896">
        <ele>380.61</ele>
      </trkpt>
      <trkpt lat="39.878580001767645" lon="-5.089329988671792">
        <ele>380.27000000000004</ele>
      </trkpt>
      <trkpt lat="39.879280002359714" lon="-5.089699984896987">
        <ele>381.25</ele>
      </trkpt>
      <trkpt lat="39.879980001776126" lon="-5.090069988675916">
        <ele>382.27000000000004</ele>
      </trkpt>
      <trkpt lat="39.880680000000005" lon="-5.09044">
        <ele>382.75</ele>
      </trkpt>
      <trkpt lat="39.881170000000004" lon="-5.09086">
        <ele>384.29</ele>
      </trkpt>
      <trkpt lat="39.881670000540204" lon="-5.091119998234084">
        <ele>383.57</ele>
      </trkpt>
      <trkpt lat="39.88217" lon="-5.09138">
        <ele>383.33</ele>
      </trkpt>
      <trkpt lat="39.88281500003714" lon="-5.091474999106109">
        <ele>383.76000000000005</ele>
      </trkpt>
      <trkpt lat="39.88346000000001" lon="-5.091570000000001">
        <ele>386.67</ele>
      </trkpt>
      <trkpt lat="39.8840700008166" lon="-5.091989996304054">
        <ele>387.36</ele>
      </trkpt>
      <trkpt lat="39.88468" lon="-5.09241">
        <ele>386.98</ele>
      </trkpt>
      <trkpt lat="39.88508" lon="-5.09241">
        <ele>386.41</ele>
      </trkpt>
      <trkpt lat="39.885650000000005" lon="-5.09215">
        <ele>387.33</ele>
      </trkpt>
      <trkpt lat="39.886369999943774" lon="-5.092055001010227">
        <ele>388.44</ele>
      </trkpt>
      <trkpt lat="39.88709" lon="-5.09196">
        <ele>390.91</ele>
      </trkpt>
      <trkpt lat="39.88756" lon="-5.09206">
        <ele>391.83</ele>
      </trkpt>
      <trkpt lat="39.888425000300394" lon="-5.092279997247591">
        <ele>393.57000000000005</ele>
      </trkpt>
      <trkpt lat="39.88929" lon="-5.0925">
        <ele>396.93</ele>
      </trkpt>
      <trkpt lat="39.889875001438405" lon="-5.093089994908093">
        <ele>396.21</ele>
      </trkpt>
      <trkpt lat="39.890460000000004" lon="-5.09368">
        <ele>392.27</ele>
      </trkpt>
      <trkpt lat="39.89089500032404" lon="-5.093959998214997">
        <ele>390.65000000000003</ele>
      </trkpt>
      <trkpt lat="39.89133" lon="-5.09424">
        <ele>388.82000000000005</ele>
      </trkpt>
      <trkpt lat="39.89190000000001" lon="-5.09445">
        <ele>387.61</ele>
      </trkpt>
      <trkpt lat="39.892590000000006" lon="-5.09499">
        <ele>387.29</ele>
      </trkpt>
      <trkpt lat="39.89314" lon="-5.0956">
        <ele>384.70000000000005</ele>
      </trkpt>
      <trkpt lat="39.8939000011166" lon="-5.096104994414606">
        <ele>384.55000000000007</ele>
      </trkpt>
      <trkpt lat="39.89466" lon="-5.09661">
        <ele>383.78000000000003</ele>
      </trkpt>
      <trkpt lat="39.89533333395509" lon="-5.096876661431284">
        <ele>383.58000000000004</ele>
      </trkpt>
      <trkpt lat="39.89600666729944" lon="-5.097143328102239">
        <ele>383.54</ele>
      </trkpt>
      <trkpt lat="39.89668" lon="-5.09741">
        <ele>382.41</ele>
      </trkpt>
      <trkpt lat="39.89720333462955" lon="-5.097813327095512">
        <ele>381.66</ele>
      </trkpt>
      <trkpt lat="39.89772666786196" lon="-5.098216660350979">
        <ele>380.89</ele>
      </trkpt>
      <trkpt lat="39.898250000000004" lon="-5.09862">
        <ele>380.64000000000004</ele>
      </trkpt>
      <trkpt lat="39.89772666816481" lon="-5.0982166605843835">
        <ele>381.39</ele>
      </trkpt>
      <trkpt lat="39.89720333493239" lon="-5.097813327328913">
        <ele>381.73</ele>
      </trkpt>
      <trkpt lat="39.89668" lon="-5.09741">
        <ele>382.41</ele>
      </trkpt>
      <trkpt lat="39.895995000465824" lon="-5.097139997361585">
        <ele>383.54</ele>
      </trkpt>
      <trkpt lat="39.89531" lon="-5.09687">
        <ele>383.58000000000004</ele>
      </trkpt>
      <trkpt lat="39.89599500016028" lon="-5.097139997241151">
        <ele>383.54</ele>
      </trkpt>
      <trkpt lat="39.89668" lon="-5.09741">
        <ele>382.33000000000004</ele>
      </trkpt>
      <trkpt lat="39.89720333462955" lon="-5.097813327095512">
        <ele>381.73</ele>
      </trkpt>
      <trkpt lat="39.89772666786196" lon="-5.098216660350979">
        <ele>381.39</ele>
      </trkpt>
      <trkpt lat="39.898250000000004" lon="-5.09862">
        <ele>380.64000000000004</ele>
      </trkpt>
      <trkpt lat="39.89878000070004" lon="-5.0981950033476195">
        <ele>379.49000000000007</ele>
      </trkpt>
      <trkpt lat="39.89931" lon="-5.097770000000001">
        <ele>379.14000000000004</ele>
      </trkpt>
      <trkpt lat="39.89961500133851" lon="-5.09830999774929">
        <ele>379.51</ele>
      </trkpt>
      <trkpt lat="39.89992" lon="-5.0988500000000005">
        <ele>379.51</ele>
      </trkpt>
      <trkpt lat="39.900350007634735" lon="-5.099793321476187">
        <ele>380.42</ele>
      </trkpt>
      <trkpt lat="39.90078000762662" lon="-5.100736654791542">
        <ele>379.46000000000004</ele>
      </trkpt>
      <trkpt lat="39.901210000000006" lon="-5.10168">
        <ele>378.34</ele>
      </trkpt>
      <trkpt lat="39.90137" lon="-5.10189">
        <ele>377.84</ele>
      </trkpt>
      <trkpt lat="39.90175500060043" lon="-5.102249998018279">
        <ele>378.65000000000003</ele>
      </trkpt>
      <trkpt lat="39.90214" lon="-5.10261">
        <ele>376.85</ele>
      </trkpt>
      <trkpt lat="39.90274500114282" lon="-5.1031349953289435">
        <ele>377.07</ele>
      </trkpt>
      <trkpt lat="39.90335" lon="-5.1036600000000005">
        <ele>376.48</ele>
      </trkpt>
      <trkpt lat="39.903650000000006" lon="-5.103980000000001">
        <ele>376.52000000000004</ele>
      </trkpt>
      <trkpt lat="39.90375" lon="-5.10418">
        <ele>376.55000000000007</ele>
      </trkpt>
      <trkpt lat="39.90379" lon="-5.104520000000001">
        <ele>376.32000000000005</ele>
      </trkpt>
      <trkpt lat="39.90401000000001" lon="-5.10482">
        <ele>376.08000000000004</ele>
      </trkpt>
      <trkpt lat="39.90404" lon="-5.105090000000001">
        <ele>375.76000000000005</ele>
      </trkpt>
      <trkpt lat="39.90384" lon="-5.10524">
        <ele>375.98</ele>
      </trkpt>
      <trkpt lat="39.90355" lon="-5.105790000000001">
        <ele>378.05000000000007</ele>
      </trkpt>
      <trkpt lat="39.90353" lon="-5.10599">
        <ele>378.05000000000007</ele>
      </trkpt>
      <trkpt lat="39.90346" lon="-5.106140000000001">
        <ele>378.05000000000007</ele>
      </trkpt>
      <trkpt lat="39.90332" lon="-5.106400000000001">
        <ele>378.72</ele>
      </trkpt>
      <trkpt lat="39.90328" lon="-5.10681">
        <ele>379.24</ele>
      </trkpt>
      <trkpt lat="39.903400000000005" lon="-5.107010000000001">
        <ele>379.19</ele>
      </trkpt>
      <trkpt lat="39.90359" lon="-5.107970000000001">
        <ele>379.53000000000003</ele>
      </trkpt>
      <trkpt lat="39.903690000000005" lon="-5.108300000000001">
        <ele>378.84</ele>
      </trkpt>
      <trkpt lat="39.903850000000006" lon="-5.10881">
        <ele>376.81</ele>
      </trkpt>
      <trkpt lat="39.90408" lon="-5.10937">
        <ele>376.87</ele>
      </trkpt>
      <trkpt lat="39.90417" lon="-5.10991">
        <ele>376.89000000000004</ele>
      </trkpt>
      <trkpt lat="39.904315003638104" lon="-5.1108299980736325">
        <ele>377.92</ele>
      </trkpt>
      <trkpt lat="39.90446" lon="-5.111750000000001">
        <ele>379.41</ele>
      </trkpt>
      <trkpt lat="39.90463401524441" lon="-5.112691990437781">
        <ele>381.45</ele>
      </trkpt>
      <trkpt lat="39.90480802286738" lon="-5.1136339856605195">
        <ele>381.52000000000004</ele>
      </trkpt>
      <trkpt lat="39.90498202286882" lon="-5.114575985668055">
        <ele>381.74</ele>
      </trkpt>
      <trkpt lat="39.90515601524866" lon="-5.115517990460233">
        <ele>382.64000000000004</ele>
      </trkpt>
      <trkpt lat="39.905330000000006" lon="-5.11646">
        <ele>380.52000000000004</ele>
      </trkpt>
      <trkpt lat="39.9057883538135" lon="-5.117436633992889">
        <ele>377.97</ele>
      </trkpt>
      <trkpt lat="39.90624669943454" lon="-5.11841328105356">
        <ele>376.76000000000005</ele>
      </trkpt>
      <trkpt lat="39.90670503686288" lon="-5.1193899411821695">
        <ele>375.20000000000005</ele>
      </trkpt>
      <trkpt lat="39.90716336609828" lon="-5.120366614378868">
        <ele>371.88000000000005</ele>
      </trkpt>
      <trkpt lat="39.90762168714049" lon="-5.121343300643812">
        <ele>370.24</ele>
      </trkpt>
      <trkpt lat="39.908080000000005" lon="-5.12232">
        <ele>370.36</ele>
      </trkpt>
      <trkpt lat="39.90813602177983" lon="-5.1234459963150485">
        <ele>372.93</ele>
      </trkpt>
      <trkpt lat="39.90819203266971" lon="-5.12457199447154">
        <ele>376.33000000000004</ele>
      </trkpt>
      <trkpt lat="39.90824803266961" lon="-5.125697994469124">
        <ele>380.20000000000005</ele>
      </trkpt>
      <trkpt lat="39.908304021779486" lon="-5.126823996307448">
        <ele>379.34</ele>
      </trkpt>
      <trkpt lat="39.90836" lon="-5.12795">
        <ele>379.27000000000004</ele>
      </trkpt>
      <trkpt lat="39.90849000448656" lon="-5.128969998209306">
        <ele>379.27000000000004</ele>
      </trkpt>
      <trkpt lat="39.908620000000006" lon="-5.12999">
        <ele>379.38000000000005</ele>
      </trkpt>
      <trkpt lat="39.908590000000004" lon="-5.13053">
        <ele>379.94000000000005</ele>
      </trkpt>
      <trkpt lat="39.908520001619245" lon="-5.131140000438326">
        <ele>380.29</ele>
      </trkpt>
      <trkpt lat="39.90845" lon="-5.13175">
        <ele>379.39</ele>
      </trkpt>
      <trkpt lat="39.90861500184283" lon="-5.132409998298763">
        <ele>376.81</ele>
      </trkpt>
      <trkpt lat="39.90878" lon="-5.13307">
        <ele>376.36</ele>
      </trkpt>
      <trkpt lat="39.90879" lon="-5.13403">
        <ele>376.46000000000004</ele>
      </trkpt>
      <trkpt lat="39.90851500131604" lon="-5.13460500252541">
        <ele>377.25</ele>
      </trkpt>
      <trkpt lat="39.908240000000006" lon="-5.13518">
        <ele>378.54</ele>
      </trkpt>
      <trkpt lat="39.90790000070824" lon="-5.135590002051378">
        <ele>380.17</ele>
      </trkpt>
      <trkpt lat="39.907560000000004" lon="-5.136">
        <ele>382.76000000000005</ele>
      </trkpt>
      <trkpt lat="39.907430000000005" lon="-5.13635">
        <ele>384.05000000000007</ele>
      </trkpt>
      <trkpt lat="39.9074" lon="-5.13663">
        <ele>384.18</ele>
      </trkpt>
      <trkpt lat="39.90762000119122" lon="-5.137159998261533">
        <ele>382.45</ele>
      </trkpt>
      <trkpt lat="39.90784" lon="-5.13769">
        <ele>381.13</ele>
      </trkpt>
      <trkpt lat="39.90789" lon="-5.13808">
        <ele>380.49000000000007</ele>
      </trkpt>
      <trkpt lat="39.907520000000005" lon="-5.13898">
        <ele>380.66</ele>
      </trkpt>
      <trkpt lat="39.90713" lon="-5.13959">
        <ele>382.38000000000005</ele>
      </trkpt>
      <trkpt lat="39.90724" lon="-5.14046">
        <ele>385.66</ele>
      </trkpt>
      <trkpt lat="39.90747000104071" lon="-5.140964998184856">
        <ele>386.14000000000004</ele>
      </trkpt>
      <trkpt lat="39.907700000000006" lon="-5.14147">
        <ele>385.19</ele>
      </trkpt>
      <trkpt lat="39.9082" lon="-5.14198">
        <ele>385.15000000000003</ele>
      </trkpt>
      <trkpt lat="39.908570000000005" lon="-5.14259">
        <ele>385.37000000000006</ele>
      </trkpt>
      <trkpt lat="39.90885" lon="-5.14297">
        <ele>385.38000000000005</ele>
      </trkpt>
      <trkpt lat="39.909040000000005" lon="-5.14372">
        <ele>385.79</ele>
      </trkpt>
      <trkpt lat="39.909000000000006" lon="-5.14452">
        <ele>387.56</ele>
      </trkpt>
      <trkpt lat="39.90911500415865" lon="-5.145504998277132">
        <ele>391.78000000000003</ele>
      </trkpt>
      <trkpt lat="39.90923" lon="-5.14649">
        <ele>394.35</ele>
      </trkpt>
      <trkpt lat="39.9094450043522" lon="-5.1474999966950215">
        <ele>393.44</ele>
      </trkpt>
      <trkpt lat="39.90966" lon="-5.148510000000001">
        <ele>393.27</ele>
      </trkpt>
      <trkpt lat="39.91007000727541" lon="-5.149429988999152">
        <ele>390.6</ele>
      </trkpt>
      <trkpt lat="39.91048000728094" lon="-5.150349989011394">
        <ele>387.03000000000003</ele>
      </trkpt>
      <trkpt lat="39.91089" lon="-5.15127">
        <ele>385.52000000000004</ele>
      </trkpt>
      <trkpt lat="39.91152" lon="-5.15205">
        <ele>384.38000000000005</ele>
      </trkpt>
      <trkpt lat="39.91189000000001" lon="-5.1523900000000005">
        <ele>383.65000000000003</ele>
      </trkpt>
      <trkpt lat="39.9121" lon="-5.15284">
        <ele>383.39</ele>
      </trkpt>
      <trkpt lat="39.91221" lon="-5.15348">
        <ele>383.95</ele>
      </trkpt>
      <trkpt lat="39.912420000000004" lon="-5.1541500000000005">
        <ele>384.37000000000006</ele>
      </trkpt>
      <trkpt lat="39.91254" lon="-5.15491">
        <ele>385.23</ele>
      </trkpt>
      <trkpt lat="39.912910002020695" lon="-5.155594996309838">
        <ele>386.19</ele>
      </trkpt>
      <trkpt lat="39.91328" lon="-5.156280000000001">
        <ele>389.27</ele>
      </trkpt>
      <trkpt lat="39.91356000191048" lon="-5.156964996943504">
        <ele>389.88</ele>
      </trkpt>
      <trkpt lat="39.91384" lon="-5.15765">
        <ele>392.0</ele>
      </trkpt>
      <trkpt lat="39.91425" lon="-5.1584200000000004">
        <ele>395.05</ele>
      </trkpt>
      <trkpt lat="39.91458" lon="-5.1588">
        <ele>396.40000000000003</ele>
      </trkpt>
      <trkpt lat="39.91519" lon="-5.1593">
        <ele>396.57000000000005</ele>
      </trkpt>
      <trkpt lat="39.915680003262594" lon="-5.160169993796517">
        <ele>397.31000000000006</ele>
      </trkpt>
      <trkpt lat="39.91617" lon="-5.161040000000001">
        <ele>399.84000000000003</ele>
      </trkpt>
      <trkpt lat="39.91625500213365" lon="-5.161749998856943">
        <ele>401.89000000000004</ele>
      </trkpt>
      <trkpt lat="39.916340000000005" lon="-5.16246">
        <ele>408.53000000000003</ele>
      </trkpt>
      <trkpt lat="39.916355003596934" lon="-5.1633749998739304">
        <ele>410.71000000000004</ele>
      </trkpt>
      <trkpt lat="39.91637" lon="-5.16429">
        <ele>411.49</ele>
      </trkpt>
      <trkpt lat="39.91657000232463" lon="-5.165019997999259">
        <ele>412.49</ele>
      </trkpt>
      <trkpt lat="39.91677000000001" lon="-5.16575">
        <ele>415.78000000000003</ele>
      </trkpt>
      <trkpt lat="39.91686" lon="-5.16596">
        <ele>416.12000000000006</ele>
      </trkpt>
      <trkpt lat="39.91716" lon="-5.16631">
        <ele>418.48</ele>
      </trkpt>
      <trkpt lat="39.91731" lon="-5.1669">
        <ele>419.59000000000003</ele>
      </trkpt>
      <trkpt lat="39.917550000000006" lon="-5.16772">
        <ele>421.41</ele>
      </trkpt>
      <trkpt lat="39.917950000000005" lon="-5.16859">
        <ele>424.3500000000001</ele>
      </trkpt>
      <trkpt lat="39.918020000000006" lon="-5.16922">
        <ele>425.58</ele>
      </trkpt>
      <trkpt lat="39.918040000000005" lon="-5.16941">
        <ele>425.91</ele>
      </trkpt>
      <trkpt lat="39.91819" lon="-5.170030000000001">
        <ele>428.07000000000005</ele>
      </trkpt>
      <trkpt lat="39.918310000000005" lon="-5.17035">
        <ele>427.87</ele>
      </trkpt>
      <trkpt lat="39.91854" lon="-5.17074">
        <ele>426.89000000000004</ele>
      </trkpt>
      <trkpt lat="39.91857" lon="-5.170990000000001">
        <ele>426.65000000000003</ele>
      </trkpt>
      <trkpt lat="39.918730000000004" lon="-5.171460000000001">
        <ele>426.59000000000003</ele>
      </trkpt>
      <trkpt lat="39.91872" lon="-5.171460000000001">
        <ele>426.57000000000005</ele>
      </trkpt>
      <trkpt lat="39.91848" lon="-5.1715800000000005">
        <ele>426.22</ele>
      </trkpt>
      <trkpt lat="39.918470000000006" lon="-5.1715800000000005">
        <ele>426.22</ele>
      </trkpt>
      <trkpt lat="39.91828000118553" lon="-5.172120001688263">
        <ele>423.25</ele>
      </trkpt>
      <trkpt lat="39.91809000000001" lon="-5.1726600000000005">
        <ele>421.69</ele>
      </trkpt>
      <trkpt lat="39.917820000000006" lon="-5.17333">
        <ele>417.72</ele>
      </trkpt>
      <trkpt lat="39.917750000000005" lon="-5.17361">
        <ele>416.65000000000003</ele>
      </trkpt>
      <trkpt lat="39.91772" lon="-5.1741600000000005">
        <ele>414.81</ele>
      </trkpt>
      <trkpt lat="39.917680000000004" lon="-5.1742300000000006">
        <ele>414.39000000000004</ele>
      </trkpt>
      <trkpt lat="39.91772" lon="-5.1741600000000005">
        <ele>414.81</ele>
      </trkpt>
      <trkpt lat="39.917680000000004" lon="-5.1742300000000006">
        <ele>414.39000000000004</ele>
      </trkpt>
      <trkpt lat="39.91763" lon="-5.174580000000001">
        <ele>413.07000000000005</ele>
      </trkpt>
      <trkpt lat="39.9176" lon="-5.174580000000001">
        <ele>413.07000000000005</ele>
      </trkpt>
      <trkpt lat="39.91754" lon="-5.17468">
        <ele>412.99</ele>
      </trkpt>
      <trkpt lat="39.916790000000006" lon="-5.17452">
        <ele>414.52000000000004</ele>
      </trkpt>
      <trkpt lat="39.916790000000006" lon="-5.17452">
        <ele>414.52000000000004</ele>
      </trkpt>
      <trkpt lat="39.91637" lon="-5.1745600000000005">
        <ele>416.14</ele>
      </trkpt>
      <trkpt lat="39.91606" lon="-5.1745">
        <ele>418.48</ele>
      </trkpt>
      <trkpt lat="39.915290000000006" lon="-5.17415">
        <ele>420.3</ele>
      </trkpt>
      <trkpt lat="39.914750000000005" lon="-5.17375">
        <ele>421.78000000000003</ele>
      </trkpt>
      <trkpt lat="39.91396" lon="-5.1734">
        <ele>424.57000000000005</ele>
      </trkpt>
      <trkpt lat="39.91328" lon="-5.17276">
        <ele>427.82000000000005</ele>
      </trkpt>
      <trkpt lat="39.91297" lon="-5.172490000000001">
        <ele>427.62000000000006</ele>
      </trkpt>
      <trkpt lat="39.91263" lon="-5.17231">
        <ele>426.86</ele>
      </trkpt>
      <trkpt lat="39.912470000000006" lon="-5.1721900000000005">
        <ele>426.31</ele>
      </trkpt>
      <trkpt lat="39.91212" lon="-5.17185">
        <ele>424.83000000000004</ele>
      </trkpt>
      <trkpt lat="39.91166000025808" lon="-5.171609998393827">
        <ele>421.97</ele>
      </trkpt>
      <trkpt lat="39.9112" lon="-5.1713700000000005">
        <ele>421.09000000000003</ele>
      </trkpt>
      <trkpt lat="39.910920000000004" lon="-5.171150000000001">
        <ele>419.82</ele>
      </trkpt>
      <trkpt lat="39.91053" lon="-5.17079">
        <ele>419.6</ele>
      </trkpt>
      <trkpt lat="39.91011" lon="-5.170380000000001">
        <ele>418.09000000000003</ele>
      </trkpt>
      <trkpt lat="39.909503336206704" lon="-5.169796656287023">
        <ele>414.77000000000004</ele>
      </trkpt>
      <trkpt lat="39.90889666949065" lon="-5.1692133229063515">
        <ele>411.06</ele>
      </trkpt>
      <trkpt lat="39.90829" lon="-5.16863">
        <ele>408.41</ele>
      </trkpt>
      <trkpt lat="39.907990000000005" lon="-5.16845">
        <ele>408.44</ele>
      </trkpt>
      <trkpt lat="39.907560000000004" lon="-5.168270000000001">
        <ele>407.51000000000005</ele>
      </trkpt>
      <trkpt lat="39.90755" lon="-5.16793">
        <ele>406.67</ele>
      </trkpt>
      <trkpt lat="39.90748000164949" lon="-5.167309999354713">
        <ele>405.34000000000003</ele>
      </trkpt>
      <trkpt lat="39.907410000000006" lon="-5.16669">
        <ele>403.29</ele>
      </trkpt>
      <trkpt lat="39.907160000000005" lon="-5.16629">
        <ele>402.02000000000004</ele>
      </trkpt>
      <trkpt lat="39.906760000000006" lon="-5.16554">
        <ele>401.9800000000001</ele>
      </trkpt>
      <trkpt lat="39.90636000000001" lon="-5.16488">
        <ele>400.76</ele>
      </trkpt>
      <trkpt lat="39.9059" lon="-5.16399">
        <ele>402.08000000000004</ele>
      </trkpt>
      <trkpt lat="39.90550000063198" lon="-5.163614997836903">
        <ele>403.34000000000003</ele>
      </trkpt>
      <trkpt lat="39.905100000000004" lon="-5.16324">
        <ele>404.09000000000003</ele>
      </trkpt>
      <trkpt lat="39.90467" lon="-5.16267">
        <ele>403.19000000000005</ele>
      </trkpt>
      <trkpt lat="39.904140000000005" lon="-5.16223">
        <ele>400.27</ele>
      </trkpt>
      <trkpt lat="39.90381" lon="-5.16204">
        <ele>398.45000000000005</ele>
      </trkpt>
      <trkpt lat="39.90346500071919" lon="-5.161654998153644">
        <ele>397.18</ele>
      </trkpt>
      <trkpt lat="39.90312" lon="-5.16127">
        <ele>394.73</ele>
      </trkpt>
      <trkpt lat="39.902770000000004" lon="-5.16061">
        <ele>392.86</ele>
      </trkpt>
      <trkpt lat="39.902350000000006" lon="-5.15998">
        <ele>391.19000000000005</ele>
      </trkpt>
      <trkpt lat="39.90184000249034" lon="-5.159436658530474">
        <ele>389.99000000000007</ele>
      </trkpt>
      <trkpt lat="39.901330002445135" lon="-5.158893325149077">
        <ele>388.91</ele>
      </trkpt>
      <trkpt lat="39.90082" lon="-5.15835">
        <ele>387.22</ele>
      </trkpt>
      <trkpt lat="39.90010600088198" lon="-5.158121990493964">
        <ele>386.20000000000005</ele>
      </trkpt>
      <trkpt lat="39.89939200131745" lon="-5.157893985739407">
        <ele>385.8</ele>
      </trkpt>
      <trkpt lat="39.89867800130644" lon="-5.157665985736114">
        <ele>385.12</ele>
      </trkpt>
      <trkpt lat="39.89796400084897" lon="-5.157437990483869">
        <ele>384.23</ele>
      </trkpt>
      <trkpt lat="39.89725000000001" lon="-5.15721">
        <ele>384.17</ele>
      </trkpt>
      <trkpt lat="39.8971" lon="-5.15714">
        <ele>384.12</ele>
      </trkpt>
      <trkpt lat="39.89659" lon="-5.15625">
        <ele>383.21999999999997</ele>
      </trkpt>
      <trkpt lat="39.896420000000006" lon="-5.15575">
        <ele>383.19</ele>
      </trkpt>
      <trkpt lat="39.89609500117631" lon="-5.155234997617007">
        <ele>383.19</ele>
      </trkpt>
      <trkpt lat="39.895770000000006" lon="-5.15472">
        <ele>383.18</ele>
      </trkpt>
      <trkpt lat="39.895160001720924" lon="-5.154094994481838">
        <ele>383.11</ele>
      </trkpt>
      <trkpt lat="39.89455" lon="-5.15347">
        <ele>382.12</ele>
      </trkpt>
      <trkpt lat="39.89396" lon="-5.15308">
        <ele>380.98</ele>
      </trkpt>
      <trkpt lat="39.89327" lon="-5.1528">
        <ele>380.22</ele>
      </trkpt>
      <trkpt lat="39.8927600004347" lon="-5.152524998013118">
        <ele>379.98</ele>
      </trkpt>
      <trkpt lat="39.892250000000004" lon="-5.15225">
        <ele>379.28</ele>
      </trkpt>
      <trkpt lat="39.891630000000006" lon="-5.15153">
        <ele>379.18</ele>
      </trkpt>
      <trkpt lat="39.89132" lon="-5.15106">
        <ele>378.79</ele>
      </trkpt>
      <trkpt lat="39.890890000000006" lon="-5.15066">
        <ele>378.1</ele>
      </trkpt>
      <trkpt lat="39.89029666758011" lon="-5.150333327676659">
        <ele>377.24</ele>
      </trkpt>
      <trkpt lat="39.88970333424374" lon="-5.150006661008395">
        <ele>376.65000000000003</ele>
      </trkpt>
      <trkpt lat="39.88911" lon="-5.14968">
        <ele>377.28</ele>
      </trkpt>
      <trkpt lat="39.888450000000006" lon="-5.14954">
        <ele>378.75</ele>
      </trkpt>
      <trkpt lat="39.88814" lon="-5.14913">
        <ele>379.16</ele>
      </trkpt>
      <trkpt lat="39.88762500044827" lon="-5.148794997461541">
        <ele>378.29</ele>
      </trkpt>
      <trkpt lat="39.88711" lon="-5.14846">
        <ele>377.77000000000004</ele>
      </trkpt>
      <trkpt lat="39.88673" lon="-5.14829">
        <ele>377.18</ele>
      </trkpt>
      <trkpt lat="39.88618" lon="-5.14792">
        <ele>375.06</ele>
      </trkpt>
      <trkpt lat="39.88547600133066" lon="-5.147641988583053">
        <ele>374.29</ele>
      </trkpt>
      <trkpt lat="39.884772001997554" lon="-5.147363982875468">
        <ele>374.95</ele>
      </trkpt>
      <trkpt lat="39.88406800200073" lon="-5.147085982876989">
        <ele>373.56</ele>
      </trkpt>
      <trkpt lat="39.88336400134022" lon="-5.146807988587362">
        <ele>372.38000000000005</ele>
      </trkpt>
      <trkpt lat="39.88266" lon="-5.14653">
        <ele>372.15000000000003</ele>
      </trkpt>
      <trkpt lat="39.88200500077858" lon="-5.146074995576964">
        <ele>371.22</ele>
      </trkpt>
      <trkpt lat="39.881350000000005" lon="-5.14562">
        <ele>371.1700000000001</ele>
      </trkpt>
      <trkpt lat="39.880770000000005" lon="-5.14494">
        <ele>370.78000000000003</ele>
      </trkpt>
      <trkpt lat="39.88016000133939" lon="-5.14438499507821">
        <ele>369.41</ele>
      </trkpt>
      <trkpt lat="39.87955" lon="-5.14383">
        <ele>369.18</ele>
      </trkpt>
      <trkpt lat="39.878820000000005" lon="-5.14355">
        <ele>368.28000000000003</ele>
      </trkpt>
      <trkpt lat="39.87829000133666" lon="-5.14315999399426">
        <ele>368.08</ele>
      </trkpt>
      <trkpt lat="39.87776000136712" lon="-5.142769994016751">
        <ele>367.26000000000005</ele>
      </trkpt>
      <trkpt lat="39.877230000000004" lon="-5.14238">
        <ele>365.70000000000005</ele>
      </trkpt>
      <trkpt lat="39.87689" lon="-5.14228">
        <ele>365.48</ele>
      </trkpt>
      <trkpt lat="39.87668" lon="-5.14222">
        <ele>365.48</ele>
      </trkpt>
      <trkpt lat="39.87597250148807" lon="-5.141879989477403">
        <ele>365.52</ele>
      </trkpt>
      <trkpt lat="39.8752650019834" lon="-5.141539985969758">
        <ele>364.91</ele>
      </trkpt>
      <trkpt lat="39.87455750148604" lon="-5.141199989476753">
        <ele>364.44000000000005</ele>
      </trkpt>
      <trkpt lat="39.873850000000004" lon="-5.14086">
        <ele>363.6</ele>
      </trkpt>
      <trkpt lat="39.87338000002476" lon="-5.1407299990959725">
        <ele>363.52</ele>
      </trkpt>
      <trkpt lat="39.872910000000005" lon="-5.1406">
        <ele>362.77000000000004</ele>
      </trkpt>
      <trkpt lat="39.87259" lon="-5.140650000000001">
        <ele>361.87</ele>
      </trkpt>
      <trkpt lat="39.87198" lon="-5.14111">
        <ele>361.59000000000003</ele>
      </trkpt>
      <trkpt lat="39.87174" lon="-5.14114">
        <ele>361.38000000000005</ele>
      </trkpt>
      <trkpt lat="39.87125" lon="-5.14104">
        <ele>360.59000000000003</ele>
      </trkpt>
      <trkpt lat="39.87069" lon="-5.14111">
        <ele>359.31</ele>
      </trkpt>
      <trkpt lat="39.87015" lon="-5.14128">
        <ele>357.64</ele>
      </trkpt>
      <trkpt lat="39.870070000000005" lon="-5.14142">
        <ele>357.39000000000004</ele>
      </trkpt>
      <trkpt lat="39.86997" lon="-5.14151">
        <ele>356.73</ele>
      </trkpt>
      <trkpt lat="39.869780000000006" lon="-5.14154">
        <ele>356.73</ele>
      </trkpt>
      <trkpt lat="39.869710000000005" lon="-5.14168">
        <ele>356.73</ele>
      </trkpt>
      <trkpt lat="39.869530000000005" lon="-5.14177">
        <ele>356.73</ele>
      </trkpt>
      <trkpt lat="39.869220000000006" lon="-5.14229">
        <ele>356.68000000000006</ele>
      </trkpt>
      <trkpt lat="39.86876" lon="-5.1425600000000005">
        <ele>355.63</ele>
      </trkpt>
      <trkpt lat="39.868410000000004" lon="-5.14257">
        <ele>358.03000000000003</ele>
      </trkpt>
      <trkpt lat="39.86811" lon="-5.14292">
        <ele>359.65000000000003</ele>
      </trkpt>
      <trkpt lat="39.867670000000004" lon="-5.143160000000001">
        <ele>360.37</ele>
      </trkpt>
      <trkpt lat="39.86731" lon="-5.14325">
        <ele>360.72</ele>
      </trkpt>
      <trkpt lat="39.867180000000005" lon="-5.14318">
        <ele>360.77000000000004</ele>
      </trkpt>
      <trkpt lat="39.86674" lon="-5.143230000000001">
        <ele>360.78000000000003</ele>
      </trkpt>
      <trkpt lat="39.866290000000006" lon="-5.14318">
        <ele>360.54</ele>
      </trkpt>
      <trkpt lat="39.866130000000005" lon="-5.14325">
        <ele>360.16</ele>
      </trkpt>
      <trkpt lat="39.865660000000005" lon="-5.14325">
        <ele>359.8</ele>
      </trkpt>
      <trkpt lat="39.865480000000005" lon="-5.1431700000000005">
        <ele>359.8</ele>
      </trkpt>
      <trkpt lat="39.86527" lon="-5.14311">
        <ele>359.8</ele>
      </trkpt>
      <trkpt lat="39.86494000283578" lon="-5.142289995928967">
        <ele>359.78000000000003</ele>
      </trkpt>
      <trkpt lat="39.864610000000006" lon="-5.14147">
        <ele>358.74</ele>
      </trkpt>
      <trkpt lat="39.86453" lon="-5.141400000000001">
        <ele>358.74</ele>
      </trkpt>
      <trkpt lat="39.86442" lon="-5.14109">
        <ele>358.21000000000004</ele>
      </trkpt>
      <trkpt lat="39.8643" lon="-5.1406">
        <ele>357.75</ele>
      </trkpt>
      <trkpt lat="39.8641" lon="-5.1402">
        <ele>357.21000000000004</ele>
      </trkpt>
      <trkpt lat="39.86383" lon="-5.13998">
        <ele>356.66</ele>
      </trkpt>
      <trkpt lat="39.863670000000006" lon="-5.13975">
        <ele>356.42</ele>
      </trkpt>
      <trkpt lat="39.863490000000006" lon="-5.13968">
        <ele>355.54</ele>
      </trkpt>
      <trkpt lat="39.86328" lon="-5.1395800000000005">
        <ele>355.06000000000006</ele>
      </trkpt>
      <trkpt lat="39.862860000000005" lon="-5.139500000000001">
        <ele>354.83000000000004</ele>
      </trkpt>
      <trkpt lat="39.862550000000006" lon="-5.13924">
        <ele>354.45000000000005</ele>
      </trkpt>
      <trkpt lat="39.86242" lon="-5.13905">
        <ele>353.67</ele>
      </trkpt>
      <trkpt lat="39.86216" lon="-5.138960000000001">
        <ele>353.31</ele>
      </trkpt>
      <trkpt lat="39.86193" lon="-5.13903">
        <ele>352.93</ele>
      </trkpt>
      <trkpt lat="39.86135000037613" lon="-5.138809996265958">
        <ele>353.67</ele>
      </trkpt>
      <trkpt lat="39.86077000033665" lon="-5.138589996251034">
        <ele>353.88</ele>
      </trkpt>
      <trkpt lat="39.86019" lon="-5.13837">
        <ele>353.03000000000003</ele>
      </trkpt>
      <trkpt lat="39.859436667795165" lon="-5.138730007896443">
        <ele>351.88</ele>
      </trkpt>
      <trkpt lat="39.858683334477504" lon="-5.139090007888824">
        <ele>350.74000000000007</ele>
      </trkpt>
      <trkpt lat="39.85793" lon="-5.13945">
        <ele>349.83000000000004</ele>
      </trkpt>
      <trkpt lat="39.8575" lon="-5.1395100000000005">
        <ele>349.05</ele>
      </trkpt>
      <trkpt lat="39.85694" lon="-5.13973">
        <ele>349.14</ele>
      </trkpt>
      <trkpt lat="39.856820000000006" lon="-5.13985">
        <ele>349.84000000000003</ele>
      </trkpt>
      <trkpt lat="39.856" lon="-5.14022">
        <ele>349.95000000000005</ele>
      </trkpt>
      <trkpt lat="39.855630000000005" lon="-5.14025">
        <ele>349.86</ele>
      </trkpt>
      <trkpt lat="39.85539" lon="-5.14032">
        <ele>349.46000000000004</ele>
      </trkpt>
      <trkpt lat="39.85522" lon="-5.14029">
        <ele>348.76</ele>
      </trkpt>
      <trkpt lat="39.85474000000001" lon="-5.14048">
        <ele>347.98</ele>
      </trkpt>
      <trkpt lat="39.85436500083014" lon="-5.140890002121495">
        <ele>347.98</ele>
      </trkpt>
      <trkpt lat="39.85399" lon="-5.1413">
        <ele>347.98</ele>
      </trkpt>
      <trkpt lat="39.853480000000005" lon="-5.14168">
        <ele>347.71000000000004</ele>
      </trkpt>
      <trkpt lat="39.85334" lon="-5.14168">
        <ele>347.63000000000005</ele>
      </trkpt>
      <trkpt lat="39.85305" lon="-5.14222">
        <ele>348.04</ele>
      </trkpt>
      <trkpt lat="39.852500000000006" lon="-5.14297">
        <ele>349.01000000000005</ele>
      </trkpt>
      <trkpt lat="39.852410000000006" lon="-5.143230000000001">
        <ele>349.01000000000005</ele>
      </trkpt>
      <trkpt lat="39.852250000000005" lon="-5.14357">
        <ele>349.02000000000004</ele>
      </trkpt>
      <trkpt lat="39.852390001507466" lon="-5.144159998851648">
        <ele>351.34000000000003</ele>
      </trkpt>
      <trkpt lat="39.85253" lon="-5.14475">
        <ele>352.27000000000004</ele>
      </trkpt>
      <trkpt lat="39.85246" lon="-5.14583">
        <ele>358.27000000000004</ele>
      </trkpt>
      <trkpt lat="39.852220003931144" lon="-5.1467800030973745">
        <ele>361.35</ele>
      </trkpt>
      <trkpt lat="39.851980000000005" lon="-5.14773">
        <ele>362.77000000000004</ele>
      </trkpt>
      <trkpt lat="39.85194500183631" lon="-5.148385000437333">
        <ele>361.66</ele>
      </trkpt>
      <trkpt lat="39.851910000000004" lon="-5.14904">
        <ele>360.48</ele>
      </trkpt>
      <trkpt lat="39.85155" lon="-5.14977">
        <ele>357.07000000000005</ele>
      </trkpt>
      <trkpt lat="39.851205004137185" lon="-5.150755005030606">
        <ele>352.64</ele>
      </trkpt>
      <trkpt lat="39.850860000000004" lon="-5.15174">
        <ele>350.55</ele>
      </trkpt>
      <trkpt lat="39.85067" lon="-5.15214">
        <ele>349.01000000000005</ele>
      </trkpt>
      <trkpt lat="39.85054" lon="-5.1531400000000005">
        <ele>349.64</ele>
      </trkpt>
      <trkpt lat="39.850530000000006" lon="-5.153230000000001">
        <ele>349.74000000000007</ele>
      </trkpt>
      <trkpt lat="39.8497699999952" lon="-5.153119998773967">
        <ele>351.11</ele>
      </trkpt>
      <trkpt lat="39.84901" lon="-5.15301">
        <ele>351.43</ele>
      </trkpt>
      <trkpt lat="39.848549999823994" lon="-5.152949999572989">
        <ele>351.7</ele>
      </trkpt>
      <trkpt lat="39.848090000000006" lon="-5.15289">
        <ele>352.36</ele>
      </trkpt>
      <trkpt lat="39.847570000000005" lon="-5.15279">
        <ele>352.75</ele>
      </trkpt>
      <trkpt lat="39.84698" lon="-5.1528">
        <ele>352.88</ele>
      </trkpt>
      <trkpt lat="39.846500000000006" lon="-5.15287">
        <ele>353.31</ele>
      </trkpt>
      <trkpt lat="39.845980000000004" lon="-5.15282">
        <ele>352.17</ele>
      </trkpt>
      <trkpt lat="39.84566" lon="-5.15286">
        <ele>351.78000000000003</ele>
      </trkpt>
      <trkpt lat="39.845330000000004" lon="-5.15273">
        <ele>351.79</ele>
      </trkpt>
      <trkpt lat="39.844845000205105" lon="-5.15273">
        <ele>352.66</ele>
      </trkpt>
      <trkpt lat="39.84436" lon="-5.15273">
        <ele>352.75</ele>
      </trkpt>
      <trkpt lat="39.84395000000001" lon="-5.15266">
        <ele>352.25</ele>
      </trkpt>
      <trkpt lat="39.843680000000006" lon="-5.1527">
        <ele>351.84000000000003</ele>
      </trkpt>
      <trkpt lat="39.84286" lon="-5.15256">
        <ele>352.09000000000003</ele>
      </trkpt>
      <trkpt lat="39.84244" lon="-5.15266">
        <ele>352.76</ele>
      </trkpt>
      <trkpt lat="39.84197" lon="-5.15233">
        <ele>351.83000000000004</ele>
      </trkpt>
      <trkpt lat="39.84151000000001" lon="-5.1523200000000005">
        <ele>352.66</ele>
      </trkpt>
      <trkpt lat="39.841040000468674" lon="-5.151949997373852">
        <ele>351.94</ele>
      </trkpt>
      <trkpt lat="39.84057000000001" lon="-5.15158">
        <ele>348.53</ele>
      </trkpt>
      <trkpt lat="39.84046" lon="-5.15134">
        <ele>347.94</ele>
      </trkpt>
      <trkpt lat="39.84019" lon="-5.15127">
        <ele>347.82</ele>
      </trkpt>
      <trkpt lat="39.83980500068936" lon="-5.150929998264367">
        <ele>347.57000000000005</ele>
      </trkpt>
      <trkpt lat="39.839420000000004" lon="-5.15059">
        <ele>347.08000000000004</ele>
      </trkpt>
      <trkpt lat="39.838890000000006" lon="-5.15038">
        <ele>347.81</ele>
      </trkpt>
      <trkpt lat="39.838390000000004" lon="-5.15012">
        <ele>346.91</ele>
      </trkpt>
      <trkpt lat="39.837720000000004" lon="-5.14975">
        <ele>346.91</ele>
      </trkpt>
      <trkpt lat="39.836940000000006" lon="-5.14968">
        <ele>344.1</ele>
      </trkpt>
      <trkpt lat="39.836465000430366" lon="-5.149359997780624">
        <ele>343.79</ele>
      </trkpt>
      <trkpt lat="39.83599" lon="-5.14904">
        <ele>342.80000000000007</ele>
      </trkpt>
      <trkpt lat="39.83560000000001" lon="-5.14904">
        <ele>342.1</ele>
      </trkpt>
      <trkpt lat="39.835420000000006" lon="-5.14893">
        <ele>340.71</ele>
      </trkpt>
      <trkpt lat="39.835240000000006" lon="-5.1489">
        <ele>340.2</ele>
      </trkpt>
      <trkpt lat="39.83447" lon="-5.14862">
        <ele>338.19000000000005</ele>
      </trkpt>
      <trkpt lat="39.83410000000001" lon="-5.14881">
        <ele>336.9200000000001</ele>
      </trkpt>
      <trkpt lat="39.83357" lon="-5.14881">
        <ele>336.04</ele>
      </trkpt>
      <trkpt lat="39.83311000026684" lon="-5.1487149994108945">
        <ele>335.94</ele>
      </trkpt>
      <trkpt lat="39.83265" lon="-5.14862">
        <ele>335.87</ele>
      </trkpt>
      <trkpt lat="39.83198" lon="-5.14843">
        <ele>334.06</ele>
      </trkpt>
      <trkpt lat="39.831186666790586" lon="-5.148326664284075">
        <ele>334.93</ele>
      </trkpt>
      <trkpt lat="39.830393333489496" lon="-5.148223330954982">
        <ele>336.0</ele>
      </trkpt>
      <trkpt lat="39.829600000000006" lon="-5.1481200000000005">
        <ele>335.90000000000003</ele>
      </trkpt>
      <trkpt lat="39.82886250022278" lon="-5.147979995485567">
        <ele>336.04</ele>
      </trkpt>
      <trkpt lat="39.82812500027728" lon="-5.147839993977103">
        <ele>334.46000000000004</ele>
      </trkpt>
      <trkpt lat="39.82738750016353" lon="-5.147699995474465">
        <ele>334.05</ele>
      </trkpt>
      <trkpt lat="39.82665" lon="-5.14756">
        <ele>334.05</ele>
      </trkpt>
      <trkpt lat="39.826640000000005" lon="-5.14756">
        <ele>334.03000000000003</ele>
      </trkpt>
      <trkpt lat="39.825758571863894" lon="-5.147690010006338">
        <ele>333.04</ele>
      </trkpt>
      <trkpt lat="39.82487714358269" lon="-5.147820016676912">
        <ele>332.95</ele>
      </trkpt>
      <trkpt lat="39.823995715156386" lon="-5.14795002001191">
        <ele>331.91</ele>
      </trkpt>
      <trkpt lat="39.823114286584996" lon="-5.1480800200115215">
        <ele>331.65</ele>
      </trkpt>
      <trkpt lat="39.82223285786854" lon="-5.148210016675938">
        <ele>330.06</ele>
      </trkpt>
      <trkpt lat="39.82135142900702" lon="-5.148340010005345">
        <ele>328.88</ele>
      </trkpt>
      <trkpt lat="39.82047" lon="-5.1484700000000005">
        <ele>327.74</ele>
      </trkpt>
      <trkpt lat="39.820220000000006" lon="-5.1480500000000005">
        <ele>327.56</ele>
      </trkpt>
      <trkpt lat="39.82007" lon="-5.14785">
        <ele>327.92</ele>
      </trkpt>
      <trkpt lat="39.81998" lon="-5.14782">
        <ele>327.92</ele>
      </trkpt>
      <trkpt lat="39.819880000000005" lon="-5.14785">
        <ele>327.92</ele>
      </trkpt>
      <trkpt lat="39.81912000032569" lon="-5.14808500257147">
        <ele>327.92</ele>
      </trkpt>
      <trkpt lat="39.818360000000006" lon="-5.14832">
        <ele>329.26000000000005</ele>
      </trkpt>
      <trkpt lat="39.81804" lon="-5.14832">
        <ele>330.81000000000006</ele>
      </trkpt>
      <trkpt lat="39.817350000189705" lon="-5.148119997997254">
        <ele>333.8</ele>
      </trkpt>
      <trkpt lat="39.816660000000006" lon="-5.14792">
        <ele>335.89000000000004</ele>
      </trkpt>
      <trkpt lat="39.816390000000006" lon="-5.147900000000001">
        <ele>336.55</ele>
      </trkpt>
      <trkpt lat="39.81557999999944" lon="-5.147874999705271">
        <ele>338.85</ele>
      </trkpt>
      <trkpt lat="39.81477" lon="-5.14785">
        <ele>340.62</ele>
      </trkpt>
      <trkpt lat="39.81463" lon="-5.147830000000001">
        <ele>341.74</ele>
      </trkpt>
      <trkpt lat="39.81385500002762" lon="-5.1478199996620875">
        <ele>338.99</ele>
      </trkpt>
      <trkpt lat="39.81308000005437" lon="-5.1478099995496835">
        <ele>337.5</ele>
      </trkpt>
      <trkpt lat="39.81230500008026" lon="-5.147799999662778">
        <ele>340.52000000000004</ele>
      </trkpt>
      <trkpt lat="39.811530000000005" lon="-5.1477900000000005">
        <ele>345.57000000000005</ele>
      </trkpt>
      <trkpt lat="39.81147" lon="-5.14757">
        <ele>345.57000000000005</ele>
      </trkpt>
      <trkpt lat="39.81123" lon="-5.14709">
        <ele>348.37</ele>
      </trkpt>
      <trkpt lat="39.81093000134458" lon="-5.146524997486195">
        <ele>350.93</ele>
      </trkpt>
      <trkpt lat="39.81063" lon="-5.1459600000000005">
        <ele>353.05</ele>
      </trkpt>
      <trkpt lat="39.81054" lon="-5.14587">
        <ele>353.85</ele>
      </trkpt>
      <trkpt lat="39.810590000000005" lon="-5.14524">
        <ele>352.73</ele>
      </trkpt>
      <trkpt lat="39.81064000000001" lon="-5.145040000000001">
        <ele>351.68000000000006</ele>
      </trkpt>
      <trkpt lat="39.80993" lon="-5.1448">
        <ele>356.1</ele>
      </trkpt>
      <trkpt lat="39.809810000000006" lon="-5.1452">
        <ele>356.67</ele>
      </trkpt>
      <trkpt lat="39.80967500234681" lon="-5.14594000147203">
        <ele>357.74</ele>
      </trkpt>
      <trkpt lat="39.809540000000005" lon="-5.146680000000001">
        <ele>357.76</ele>
      </trkpt>
      <trkpt lat="39.80939" lon="-5.14728">
        <ele>357.14</ele>
      </trkpt>
      <trkpt lat="39.809180000000005" lon="-5.14782">
        <ele>357.16</ele>
      </trkpt>
      <trkpt lat="39.80883" lon="-5.14862">
        <ele>355.22</ele>
      </trkpt>
      <trkpt lat="39.80866" lon="-5.1490800000000005">
        <ele>352.46000000000004</ele>
      </trkpt>
      <trkpt lat="39.80841500351281" lon="-5.1499800030736615">
        <ele>343.34000000000003</ele>
      </trkpt>
      <trkpt lat="39.808170000000004" lon="-5.150880000000001">
        <ele>338.84000000000003</ele>
      </trkpt>
      <trkpt lat="39.808080000000004" lon="-5.1509">
        <ele>338.84000000000003</ele>
      </trkpt>
      <trkpt lat="39.807930000000006" lon="-5.15113">
        <ele>338.28000000000003</ele>
      </trkpt>
      <trkpt lat="39.80787" lon="-5.1512">
        <ele>338.28000000000003</ele>
      </trkpt>
      <trkpt lat="39.80782000000001" lon="-5.151190000000001">
        <ele>338.28000000000003</ele>
      </trkpt>
      <trkpt lat="39.807550000000006" lon="-5.15172">
        <ele>336.67</ele>
      </trkpt>
      <trkpt lat="39.80735000000001" lon="-5.15202">
        <ele>335.39</ele>
      </trkpt>
      <trkpt lat="39.807140000000004" lon="-5.152290000000001">
        <ele>334.35</ele>
      </trkpt>
      <trkpt lat="39.80704" lon="-5.15249">
        <ele>334.35</ele>
      </trkpt>
      <trkpt lat="39.80698" lon="-5.15268">
        <ele>334.35</ele>
      </trkpt>
      <trkpt lat="39.806940000000004" lon="-5.15289">
        <ele>334.35</ele>
      </trkpt>
      <trkpt lat="39.80693" lon="-5.15315">
        <ele>334.35</ele>
      </trkpt>
      <trkpt lat="39.806990000000006" lon="-5.15395">
        <ele>334.35</ele>
      </trkpt>
      <trkpt lat="39.807" lon="-5.15453">
        <ele>326.75000000000006</ele>
      </trkpt>
      <trkpt lat="39.80698500167193" lon="-5.155155000326084">
        <ele>326.75000000000006</ele>
      </trkpt>
      <trkpt lat="39.80697" lon="-5.15578">
        <ele>326.75000000000006</ele>
      </trkpt>
      <trkpt lat="39.806940000000004" lon="-5.156280000000001">
        <ele>326.75000000000006</ele>
      </trkpt>
      <trkpt lat="39.80687" lon="-5.156750000000001">
        <ele>326.24</ele>
      </trkpt>
      <trkpt lat="39.80686" lon="-5.15695">
        <ele>325.94</ele>
      </trkpt>
      <trkpt lat="39.80678" lon="-5.15737">
        <ele>325.29</ele>
      </trkpt>
      <trkpt lat="39.80679000000001" lon="-5.15747">
        <ele>324.93000000000006</ele>
      </trkpt>
      <trkpt lat="39.80695" lon="-5.157870000000001">
        <ele>323.86</ele>
      </trkpt>
      <trkpt lat="39.80697" lon="-5.15803">
        <ele>323.90000000000003</ele>
      </trkpt>
      <trkpt lat="39.806940000000004" lon="-5.15843">
        <ele>324.04</ele>
      </trkpt>
      <trkpt lat="39.806940000000004" lon="-5.1592">
        <ele>324.62</ele>
      </trkpt>
      <trkpt lat="39.80691" lon="-5.15941">
        <ele>324.68</ele>
      </trkpt>
      <trkpt lat="39.80677" lon="-5.15998">
        <ele>324.53000000000003</ele>
      </trkpt>
      <trkpt lat="39.80668" lon="-5.1604">
        <ele>325.35</ele>
      </trkpt>
      <trkpt lat="39.806630000000006" lon="-5.160850000000001">
        <ele>325.85</ele>
      </trkpt>
      <trkpt lat="39.806560006200016" lon="-5.161700001751178">
        <ele>326.8</ele>
      </trkpt>
      <trkpt lat="39.806490006198324" lon="-5.162550001771583">
        <ele>327.77</ele>
      </trkpt>
      <trkpt lat="39.80642" lon="-5.1634">
        <ele>328.67</ele>
      </trkpt>
      <trkpt lat="39.80642" lon="-5.16364">
        <ele>328.86</ele>
      </trkpt>
      <trkpt lat="39.80646" lon="-5.16399">
        <ele>328.73</ele>
      </trkpt>
      <trkpt lat="39.80657" lon="-5.1646">
        <ele>327.92</ele>
      </trkpt>
      <trkpt lat="39.8068" lon="-5.16561">
        <ele>325.34000000000003</ele>
      </trkpt>
      <trkpt lat="39.80686" lon="-5.16615">
        <ele>324.12</ele>
      </trkpt>
      <trkpt lat="39.80697" lon="-5.1665">
        <ele>324.52000000000004</ele>
      </trkpt>
      <trkpt lat="39.807100000000005" lon="-5.166600000000001">
        <ele>325.24</ele>
      </trkpt>
      <trkpt lat="39.807040002369554" lon="-5.167340000407232">
        <ele>326.38</ele>
      </trkpt>
      <trkpt lat="39.80698" lon="-5.168080000000001">
        <ele>325.33</ele>
      </trkpt>
      <trkpt lat="39.80697" lon="-5.168080000000001">
        <ele>325.33</ele>
      </trkpt>
      <trkpt lat="39.80675" lon="-5.168100000000001">
        <ele>325.67</ele>
      </trkpt>
      <trkpt lat="39.80657" lon="-5.16819">
        <ele>325.82000000000005</ele>
      </trkpt>
      <trkpt lat="39.80646" lon="-5.16833">
        <ele>325.88</ele>
      </trkpt>
      <trkpt lat="39.80615" lon="-5.168950000000001">
        <ele>327.17</ele>
      </trkpt>
      <trkpt lat="39.806140000000006" lon="-5.16896">
        <ele>327.19000000000005</ele>
      </trkpt>
      <trkpt lat="39.806070000000005" lon="-5.16896">
        <ele>327.33</ele>
      </trkpt>
      <trkpt lat="39.806050000000006" lon="-5.16901">
        <ele>327.33</ele>
      </trkpt>
      <trkpt lat="39.80606" lon="-5.1690700000000005">
        <ele>327.41</ele>
      </trkpt>
      <trkpt lat="39.80604" lon="-5.16901">
        <ele>327.34000000000003</ele>
      </trkpt>
      <trkpt lat="39.80606" lon="-5.1690700000000005">
        <ele>327.41</ele>
      </trkpt>
      <trkpt lat="39.805670000000006" lon="-5.16941">
        <ele>328.88</ele>
      </trkpt>
      <trkpt lat="39.805020000000006" lon="-5.1700800000000005">
        <ele>331.56</ele>
      </trkpt>
      <trkpt lat="39.80442" lon="-5.17063">
        <ele>333.99</ele>
      </trkpt>
      <trkpt lat="39.803900000000006" lon="-5.17119">
        <ele>336.62</ele>
      </trkpt>
      <trkpt lat="39.803610000000006" lon="-5.17161">
        <ele>338.73</ele>
      </trkpt>
      <trkpt lat="39.80294000000001" lon="-5.17227">
        <ele>339.34000000000003</ele>
      </trkpt>
      <trkpt lat="39.80243" lon="-5.17168">
        <ele>339.32</ele>
      </trkpt>
      <trkpt lat="39.80238000000001" lon="-5.17164">
        <ele>339.32</ele>
      </trkpt>
      <trkpt lat="39.802310000000006" lon="-5.17166">
        <ele>339.32</ele>
      </trkpt>
      <trkpt lat="39.80223" lon="-5.17157">
        <ele>339.59</ele>
      </trkpt>
      <trkpt lat="39.80218" lon="-5.171430000000001">
        <ele>339.59</ele>
      </trkpt>
      <trkpt lat="39.80216" lon="-5.17142">
        <ele>339.62</ele>
      </trkpt>
      <trkpt lat="39.80205" lon="-5.171010000000001">
        <ele>339.35</ele>
      </trkpt>
      <trkpt lat="39.80183" lon="-5.1707">
        <ele>339.21</ele>
      </trkpt>
      <trkpt lat="39.801820000000006" lon="-5.1706900000000005">
        <ele>339.21</ele>
      </trkpt>
      <trkpt lat="39.80174" lon="-5.17063">
        <ele>339.21</ele>
      </trkpt>
      <trkpt lat="39.80169" lon="-5.17048">
        <ele>338.71</ele>
      </trkpt>
      <trkpt lat="39.80163" lon="-5.17044">
        <ele>338.71</ele>
      </trkpt>
      <trkpt lat="39.801520000000004" lon="-5.17042">
        <ele>338.24</ele>
      </trkpt>
      <trkpt lat="39.80115" lon="-5.17044">
        <ele>334.34000000000003</ele>
      </trkpt>
      <trkpt lat="39.80096" lon="-5.17042">
        <ele>333.03000000000003</ele>
      </trkpt>
      <trkpt lat="39.80064" lon="-5.1703">
        <ele>330.3</ele>
      </trkpt>
      <trkpt lat="39.80053" lon="-5.1703">
        <ele>329.56</ele>
      </trkpt>
      <trkpt lat="39.80041000000001" lon="-5.17034">
        <ele>328.6</ele>
      </trkpt>
      <trkpt lat="39.80022" lon="-5.17048">
        <ele>327.13000000000005</ele>
      </trkpt>
      <trkpt lat="39.80015" lon="-5.17039">
        <ele>326.29</ele>
      </trkpt>
      <trkpt lat="39.79962000215894" lon="-5.169889992305495">
        <ele>323.52000000000004</ele>
      </trkpt>
      <trkpt lat="39.79909000217202" lon="-5.169389992317944">
        <ele>320.26000000000005</ele>
      </trkpt>
      <trkpt lat="39.79856" lon="-5.16889">
        <ele>322.26000000000005</ele>
      </trkpt>
      <trkpt lat="39.798550000000006" lon="-5.16889">
        <ele>322.22</ele>
      </trkpt>
      <trkpt lat="39.798460000000006" lon="-5.16894">
        <ele>321.72</ele>
      </trkpt>
      <trkpt lat="39.798170000000006" lon="-5.16922">
        <ele>322.19</ele>
      </trkpt>
      <trkpt lat="39.797830000000005" lon="-5.16948">
        <ele>325.0</ele>
      </trkpt>
      <trkpt lat="39.79764" lon="-5.1695">
        <ele>326.14000000000004</ele>
      </trkpt>
      <trkpt lat="39.79704" lon="-5.16943">
        <ele>329.74</ele>
      </trkpt>
      <trkpt lat="39.7965849999084" lon="-5.169419999931821">
        <ele>330.3</ele>
      </trkpt>
      <trkpt lat="39.796130000000005" lon="-5.16941">
        <ele>330.85</ele>
      </trkpt>
      <trkpt lat="39.7956" lon="-5.16941">
        <ele>332.63000000000005</ele>
      </trkpt>
      <trkpt lat="39.79543" lon="-5.16943">
        <ele>333.33</ele>
      </trkpt>
      <trkpt lat="39.79478" lon="-5.16964">
        <ele>336.73</ele>
      </trkpt>
      <trkpt lat="39.79397" lon="-5.169980000000001">
        <ele>341.78000000000003</ele>
      </trkpt>
      <trkpt lat="39.79397" lon="-5.16999">
        <ele>341.78000000000003</ele>
      </trkpt>
      <trkpt lat="39.79372" lon="-5.17018">
        <ele>343.31</ele>
      </trkpt>
      <trkpt lat="39.79319" lon="-5.17046">
        <ele>345.16</ele>
      </trkpt>
      <trkpt lat="39.79318000000001" lon="-5.17046">
        <ele>345.2</ele>
      </trkpt>
      <trkpt lat="39.79271000000001" lon="-5.1707">
        <ele>348.04</ele>
      </trkpt>
      <trkpt lat="39.79243" lon="-5.17096">
        <ele>350.39000000000004</ele>
      </trkpt>
      <trkpt lat="39.79189" lon="-5.171270000000001">
        <ele>351.98</ele>
      </trkpt>
      <trkpt lat="39.791880000000006" lon="-5.171270000000001">
        <ele>351.99</ele>
      </trkpt>
      <trkpt lat="39.791470000000004" lon="-5.1715">
        <ele>352.14</ele>
      </trkpt>
      <trkpt lat="39.7907" lon="-5.17178">
        <ele>353.59000000000003</ele>
      </trkpt>
      <trkpt lat="39.79021000040192" lon="-5.172050001874091">
        <ele>354.8</ele>
      </trkpt>
      <trkpt lat="39.78972" lon="-5.17232">
        <ele>356.07000000000005</ele>
      </trkpt>
      <trkpt lat="39.789410000000004" lon="-5.172440000000001">
        <ele>357.1</ele>
      </trkpt>
      <trkpt lat="39.7894" lon="-5.172440000000001">
        <ele>357.13</ele>
      </trkpt>
      <trkpt lat="39.788650000000004" lon="-5.17274">
        <ele>359.73</ele>
      </trkpt>
      <trkpt lat="39.78811000011676" lon="-5.172940001590153">
        <ele>361.23</ele>
      </trkpt>
      <trkpt lat="39.78757" lon="-5.17314">
        <ele>361.49</ele>
      </trkpt>
      <trkpt lat="39.786770000000004" lon="-5.17351">
        <ele>363.75</ele>
      </trkpt>
      <trkpt lat="39.78616000014283" lon="-5.173735002022297">
        <ele>365.36</ele>
      </trkpt>
      <trkpt lat="39.78555" lon="-5.17396">
        <ele>368.07</ele>
      </trkpt>
      <trkpt lat="39.785540000000005" lon="-5.17396">
        <ele>368.12</ele>
      </trkpt>
      <trkpt lat="39.7854" lon="-5.17401">
        <ele>368.45000000000005</ele>
      </trkpt>
      <trkpt lat="39.785120000000006" lon="-5.17408">
        <ele>369.71000000000004</ele>
      </trkpt>
      <trkpt lat="39.78493" lon="-5.1740200000000005">
        <ele>370.76000000000005</ele>
      </trkpt>
      <trkpt lat="39.78463" lon="-5.17414">
        <ele>371.6</ele>
      </trkpt>
      <trkpt lat="39.784620000000004" lon="-5.17414">
        <ele>371.62</ele>
      </trkpt>
      <trkpt lat="39.78388" lon="-5.17443">
        <ele>373.16</ele>
      </trkpt>
      <trkpt lat="39.78381" lon="-5.174460000000001">
        <ele>373.46</ele>
      </trkpt>
      <trkpt lat="39.78315750078315" lon="-5.174715007275275">
        <ele>376.23</ele>
      </trkpt>
      <trkpt lat="39.782505001008204" lon="-5.174970009714293">
        <ele>380.45</ele>
      </trkpt>
      <trkpt lat="39.781852500675186" lon="-5.1752250073172545">
        <ele>383.5</ele>
      </trkpt>
      <trkpt lat="39.781200000000005" lon="-5.17548">
        <ele>387.6</ele>
      </trkpt>
      <trkpt lat="39.78119" lon="-5.17548">
        <ele>387.61</ele>
      </trkpt>
      <trkpt lat="39.78034" lon="-5.17581">
        <ele>392.51</ele>
      </trkpt>
      <trkpt lat="39.779770000000006" lon="-5.17614">
        <ele>396.33</ele>
      </trkpt>
      <trkpt lat="39.77953" lon="-5.17635">
        <ele>397.89</ele>
      </trkpt>
      <trkpt lat="39.77902" lon="-5.17694">
        <ele>400.62</ele>
      </trkpt>
      <trkpt lat="39.77853" lon="-5.17755">
        <ele>402.90000000000003</ele>
      </trkpt>
      <trkpt lat="39.77798500184976" lon="-5.178195005031298">
        <ele>402.93</ele>
      </trkpt>
      <trkpt lat="39.777440000000006" lon="-5.17884">
        <ele>402.90000000000003</ele>
      </trkpt>
      <trkpt lat="39.77681500251426" lon="-5.179610007029161">
        <ele>407.49</ele>
      </trkpt>
      <trkpt lat="39.77619" lon="-5.18038">
        <ele>412.24000000000007</ele>
      </trkpt>
      <trkpt lat="39.77591" lon="-5.1807300000000005">
        <ele>412.26</ele>
      </trkpt>
      <trkpt lat="39.775850000000005" lon="-5.18109">
        <ele>412.30000000000007</ele>
      </trkpt>
      <trkpt lat="39.775360000000006" lon="-5.1818100000000005">
        <ele>414.56000000000006</ele>
      </trkpt>
      <trkpt lat="39.775020000000005" lon="-5.18217">
        <ele>416.61</ele>
      </trkpt>
      <trkpt lat="39.774640000000005" lon="-5.18231">
        <ele>418.86</ele>
      </trkpt>
      <trkpt lat="39.77384" lon="-5.18257">
        <ele>419.18000000000006</ele>
      </trkpt>
      <trkpt lat="39.77310000040277" lon="-5.182875003277406">
        <ele>422.22</ele>
      </trkpt>
      <trkpt lat="39.772360000000006" lon="-5.18318">
        <ele>425.00000000000006</ele>
      </trkpt>
      <trkpt lat="39.77188" lon="-5.18344">
        <ele>425.03000000000003</ele>
      </trkpt>
      <trkpt lat="39.771440000000005" lon="-5.18358">
        <ele>425.00000000000006</ele>
      </trkpt>
      <trkpt lat="39.770880000000005" lon="-5.18365">
        <ele>426.34000000000003</ele>
      </trkpt>
      <trkpt lat="39.77029" lon="-5.18367">
        <ele>430.62000000000006</ele>
      </trkpt>
      <trkpt lat="39.76946000029037" lon="-5.183519998226569">
        <ele>430.95000000000005</ele>
      </trkpt>
      <trkpt lat="39.76863" lon="-5.18337">
        <ele>431.64</ele>
      </trkpt>
      <trkpt lat="39.76813500016247" lon="-5.183395000171679">
        <ele>432.86</ele>
      </trkpt>
      <trkpt lat="39.76764" lon="-5.183420000000001">
        <ele>434.93</ele>
      </trkpt>
      <trkpt lat="39.76708" lon="-5.183490000000001">
        <ele>437.53000000000003</ele>
      </trkpt>
      <trkpt lat="39.76633333435387" lon="-5.18370834517253">
        <ele>440.27000000000004</ele>
      </trkpt>
      <trkpt lat="39.76558666829862" lon="-5.183926685609334">
        <ele>440.75</ele>
      </trkpt>
      <trkpt lat="39.76484000183428" lon="-5.1841450213106395">
        <ele>443.37</ele>
      </trkpt>
      <trkpt lat="39.76409333496089" lon="-5.184363352276671">
        <ele>447.65000000000003</ele>
      </trkpt>
      <trkpt lat="39.76334666767844" lon="-5.184581678507654">
        <ele>451.48</ele>
      </trkpt>
      <trkpt lat="39.762600000000006" lon="-5.1848">
        <ele>454.67</ele>
      </trkpt>
      <trkpt lat="39.762370000000004" lon="-5.1847900000000005">
        <ele>455.5</ele>
      </trkpt>
      <trkpt lat="39.76225" lon="-5.18475">
        <ele>455.68</ele>
      </trkpt>
      <trkpt lat="39.761680000000005" lon="-5.184170000000001">
        <ele>457.20000000000005</ele>
      </trkpt>
      <trkpt lat="39.76164" lon="-5.18398">
        <ele>456.85</ele>
      </trkpt>
      <trkpt lat="39.761680000000005" lon="-5.1837800000000005">
        <ele>455.86</ele>
      </trkpt>
      <trkpt lat="39.76171" lon="-5.18351">
        <ele>456.06</ele>
      </trkpt>
      <trkpt lat="39.761860000000006" lon="-5.18299">
        <ele>456.8</ele>
      </trkpt>
      <trkpt lat="39.76187" lon="-5.18289">
        <ele>456.81000000000006</ele>
      </trkpt>
      <trkpt lat="39.76185" lon="-5.182860000000001">
        <ele>456.81000000000006</ele>
      </trkpt>
      <trkpt lat="39.76182" lon="-5.18276">
        <ele>456.81000000000006</ele>
      </trkpt>
      <trkpt lat="39.76176" lon="-5.18269">
        <ele>456.85</ele>
      </trkpt>
      <trkpt lat="39.76145" lon="-5.1825">
        <ele>457.23</ele>
      </trkpt>
      <trkpt lat="39.76101000023488" lon="-5.182294998715591">
        <ele>458.69000000000005</ele>
      </trkpt>
      <trkpt lat="39.76057" lon="-5.1820900000000005">
        <ele>458.79</ele>
      </trkpt>
      <trkpt lat="39.76026" lon="-5.181620000000001">
        <ele>458.85</ele>
      </trkpt>
      <trkpt lat="39.76028" lon="-5.18142">
        <ele>458.81000000000006</ele>
      </trkpt>
      <trkpt lat="39.760070000000006" lon="-5.181050000000001">
        <ele>459.0</ele>
      </trkpt>
      <trkpt lat="39.75984500278051" lon="-5.180249997509122">
        <ele>457.90000000000003</ele>
      </trkpt>
      <trkpt lat="39.759620000000005" lon="-5.17945">
        <ele>455.52000000000004</ele>
      </trkpt>
      <trkpt lat="39.75939" lon="-5.179080000000001">
        <ele>454.74</ele>
      </trkpt>
      <trkpt lat="39.759170001463254" lon="-5.178514998435511">
        <ele>454.6</ele>
      </trkpt>
      <trkpt lat="39.758950000000006" lon="-5.17795">
        <ele>452.83</ele>
      </trkpt>
      <trkpt lat="39.758400005194844" lon="-5.1773149847921545">
        <ele>453.49000000000007</ele>
      </trkpt>
      <trkpt lat="39.7578500069295" lon="-5.17667997972668">
        <ele>456.8</ele>
      </trkpt>
      <trkpt lat="39.7573000052041" lon="-5.176044984803284">
        <ele>460.45</ele>
      </trkpt>
      <trkpt lat="39.756750000000004" lon="-5.17541">
        <ele>457.58000000000004</ele>
      </trkpt>
      <trkpt lat="39.75641" lon="-5.17469">
        <ele>456.70000000000005</ele>
      </trkpt>
      <trkpt lat="39.756060000000005" lon="-5.1745">
        <ele>455.46000000000004</ele>
      </trkpt>
      <trkpt lat="39.75555500022986" lon="-5.174665001172825">
        <ele>452.65000000000003</ele>
      </trkpt>
      <trkpt lat="39.755050000000004" lon="-5.17483">
        <ele>451.33000000000004</ele>
      </trkpt>
      <trkpt lat="39.75423" lon="-5.17457">
        <ele>452.31000000000006</ele>
      </trkpt>
      <trkpt lat="39.75367000000001" lon="-5.1737400000000004">
        <ele>457.88000000000005</ele>
      </trkpt>
      <trkpt lat="39.75319000026221" lon="-5.173980001664861">
        <ele>456.36</ele>
      </trkpt>
      <trkpt lat="39.75271" lon="-5.17422">
        <ele>454.97</ele>
      </trkpt>
      <trkpt lat="39.752320000000005" lon="-5.17391">
        <ele>456.69000000000005</ele>
      </trkpt>
      <trkpt lat="39.75169" lon="-5.17412">
        <ele>458.29</ele>
      </trkpt>
      <trkpt lat="39.75123000000001" lon="-5.17347">
        <ele>459.24</ele>
      </trkpt>
      <trkpt lat="39.75076000000001" lon="-5.1732700000000005">
        <ele>461.0400000000001</ele>
      </trkpt>
      <trkpt lat="39.75041" lon="-5.17333">
        <ele>462.52000000000004</ele>
      </trkpt>
      <trkpt lat="39.74985" lon="-5.17398">
        <ele>461.03000000000003</ele>
      </trkpt>
      <trkpt lat="39.74951" lon="-5.17408">
        <ele>459.62</ele>
      </trkpt>
      <trkpt lat="39.74877000056681" lon="-5.173739996380557">
        <ele>454.74</ele>
      </trkpt>
      <trkpt lat="39.74803" lon="-5.1734">
        <ele>453.32000000000005</ele>
      </trkpt>
      <trkpt lat="39.74756" lon="-5.17269">
        <ele>455.0</ele>
      </trkpt>
      <trkpt lat="39.747370000000004" lon="-5.172610000000001">
        <ele>455.01</ele>
      </trkpt>
      <trkpt lat="39.74654500011185" lon="-5.1723949974030505">
        <ele>462.14000000000004</ele>
      </trkpt>
      <trkpt lat="39.745720000000006" lon="-5.17218">
        <ele>463.38</ele>
      </trkpt>
      <trkpt lat="39.745020000000004" lon="-5.17234">
        <ele>462.01000000000005</ele>
      </trkpt>
      <trkpt lat="39.744400000000006" lon="-5.17185">
        <ele>462.68</ele>
      </trkpt>
      <trkpt lat="39.74384500083176" lon="-5.171449996882955">
        <ele>462.91</ele>
      </trkpt>
      <trkpt lat="39.74329" lon="-5.17105">
        <ele>463.11</ele>
      </trkpt>
      <trkpt lat="39.742830000000005" lon="-5.17119">
        <ele>465.4200000000001</ele>
      </trkpt>
      <trkpt lat="39.74204500123745" lon="-5.171730006160797">
        <ele>468.36000000000007</ele>
      </trkpt>
      <trkpt lat="39.741260000000004" lon="-5.17227">
        <ele>464.58000000000004</ele>
      </trkpt>
      <trkpt lat="39.740950000000005" lon="-5.1722">
        <ele>466.17</ele>
      </trkpt>
      <trkpt lat="39.74067" lon="-5.17199">
        <ele>468.73</ele>
      </trkpt>
      <trkpt lat="39.74015500094567" lon="-5.1715099963731195">
        <ele>468.69000000000005</ele>
      </trkpt>
      <trkpt lat="39.73964" lon="-5.17103">
        <ele>471.12</ele>
      </trkpt>
      <trkpt lat="39.73922" lon="-5.17091">
        <ele>474.08000000000004</ele>
      </trkpt>
      <trkpt lat="39.738820000000004" lon="-5.1708300000000005">
        <ele>476.19000000000005</ele>
      </trkpt>
      <trkpt lat="39.738290000000006" lon="-5.17058">
        <ele>475.69000000000005</ele>
      </trkpt>
      <trkpt lat="39.73780500026442" lon="-5.170630000325701">
        <ele>475.57000000000005</ele>
      </trkpt>
      <trkpt lat="39.737320000000004" lon="-5.170680000000001">
        <ele>476.45000000000005</ele>
      </trkpt>
      <trkpt lat="39.736790000000006" lon="-5.17055">
        <ele>477.78000000000003</ele>
      </trkpt>
      <trkpt lat="39.73595" lon="-5.17056">
        <ele>484.61</ele>
      </trkpt>
      <trkpt lat="39.73534" lon="-5.17009">
        <ele>490.61</ele>
      </trkpt>
      <trkpt lat="39.734500000000004" lon="-5.17009">
        <ele>494.18000000000006</ele>
      </trkpt>
      <trkpt lat="39.73396000151396" lon="-5.169489995265822">
        <ele>493.78000000000003</ele>
      </trkpt>
      <trkpt lat="39.73342" lon="-5.16889">
        <ele>494.61</ele>
      </trkpt>
      <trkpt lat="39.733050000000006" lon="-5.16819">
        <ele>497.34000000000003</ele>
      </trkpt>
      <trkpt lat="39.732710000000004" lon="-5.1673100000000005">
        <ele>500.6700000000001</ele>
      </trkpt>
      <trkpt lat="39.73264" lon="-5.16718">
        <ele>501.09000000000003</ele>
      </trkpt>
      <trkpt lat="39.732530000000004" lon="-5.1671000000000005">
        <ele>501.6400000000001</ele>
      </trkpt>
      <trkpt lat="39.7318" lon="-5.16671">
        <ele>504.58000000000004</ele>
      </trkpt>
      <trkpt lat="39.731390000000005" lon="-5.1665600000000005">
        <ele>504.95</ele>
      </trkpt>
      <trkpt lat="39.731230000000004" lon="-5.16652">
        <ele>504.9</ele>
      </trkpt>
      <trkpt lat="39.73104" lon="-5.16664">
        <ele>504.33000000000004</ele>
      </trkpt>
      <trkpt lat="39.730940000000004" lon="-5.16666">
        <ele>503.33000000000004</ele>
      </trkpt>
      <trkpt lat="39.73068000000001" lon="-5.16669">
        <ele>500.94000000000005</ele>
      </trkpt>
      <trkpt lat="39.73046" lon="-5.16662">
        <ele>499.39000000000004</ele>
      </trkpt>
      <trkpt lat="39.73035" lon="-5.16662">
        <ele>497.84000000000003</ele>
      </trkpt>
      <trkpt lat="39.73013" lon="-5.16669">
        <ele>496.04</ele>
      </trkpt>
      <trkpt lat="39.72984" lon="-5.16666">
        <ele>492.25</ele>
      </trkpt>
      <trkpt lat="39.729760000000006" lon="-5.16669">
        <ele>491.55</ele>
      </trkpt>
      <trkpt lat="39.729490000000006" lon="-5.16696">
        <ele>489.11</ele>
      </trkpt>
      <trkpt lat="39.72916000077667" lon="-5.167370001893473">
        <ele>486.23</ele>
      </trkpt>
      <trkpt lat="39.72883" lon="-5.1677800000000005">
        <ele>482.81</ele>
      </trkpt>
      <trkpt lat="39.728550000000006" lon="-5.16818">
        <ele>481.33000000000004</ele>
      </trkpt>
      <trkpt lat="39.72829" lon="-5.16849">
        <ele>476.2</ele>
      </trkpt>
      <trkpt lat="39.727970000000006" lon="-5.16894">
        <ele>475.83000000000004</ele>
      </trkpt>
      <trkpt lat="39.72786" lon="-5.16901">
        <ele>475.5</ele>
      </trkpt>
      <trkpt lat="39.72773" lon="-5.16906">
        <ele>474.86000000000007</ele>
      </trkpt>
      <trkpt lat="39.72757" lon="-5.16908">
        <ele>474.30000000000007</ele>
      </trkpt>
      <trkpt lat="39.72708" lon="-5.16906">
        <ele>472.71000000000004</ele>
      </trkpt>
      <trkpt lat="39.726940000000006" lon="-5.16908">
        <ele>471.87</ele>
      </trkpt>
      <trkpt lat="39.726690000000005" lon="-5.169320000000001">
        <ele>469.71</ele>
      </trkpt>
      <trkpt lat="39.72654" lon="-5.16936">
        <ele>467.94</ele>
      </trkpt>
      <trkpt lat="39.72614" lon="-5.16943">
        <ele>465.25000000000006</ele>
      </trkpt>
      <trkpt lat="39.72592" lon="-5.1695">
        <ele>464.29</ele>
      </trkpt>
      <trkpt lat="39.7257" lon="-5.16964">
        <ele>462.81000000000006</ele>
      </trkpt>
      <trkpt lat="39.725530000000006" lon="-5.16981">
        <ele>461.42</ele>
      </trkpt>
      <trkpt lat="39.72527" lon="-5.170140000000001">
        <ele>460.36</ele>
      </trkpt>
      <trkpt lat="39.7252" lon="-5.17013">
        <ele>460.40000000000003</ele>
      </trkpt>
      <trkpt lat="39.72522" lon="-5.170000000000001">
        <ele>460.40000000000003</ele>
      </trkpt>
      <trkpt lat="39.72522" lon="-5.17001">
        <ele>460.39</ele>
      </trkpt>
      <trkpt lat="39.7252" lon="-5.17013">
        <ele>460.36</ele>
      </trkpt>
      <trkpt lat="39.72514" lon="-5.17028">
        <ele>460.36</ele>
      </trkpt>
      <trkpt lat="39.72502" lon="-5.17046">
        <ele>460.32000000000005</ele>
      </trkpt>
      <trkpt lat="39.72454666946161" lon="-5.171033341235124">
        <ele>461.08000000000004</ele>
      </trkpt>
      <trkpt lat="39.72407333610311" lon="-5.17160667459883">
        <ele>462.0</ele>
      </trkpt>
      <trkpt lat="39.723600000000005" lon="-5.17218">
        <ele>461.90000000000003</ele>
      </trkpt>
      <trkpt lat="39.72320000154683" lon="-5.172790003613655">
        <ele>462.55</ele>
      </trkpt>
      <trkpt lat="39.72280000000001" lon="-5.1734">
        <ele>463.07000000000005</ele>
      </trkpt>
      <trkpt lat="39.72256" lon="-5.173730000000001">
        <ele>463.58000000000004</ele>
      </trkpt>
      <trkpt lat="39.72236" lon="-5.17394">
        <ele>463.5400000000001</ele>
      </trkpt>
      <trkpt lat="39.721640001652965" lon="-5.1745700066210585">
        <ele>461.32000000000005</ele>
      </trkpt>
      <trkpt lat="39.72092000000001" lon="-5.1752">
        <ele>459.03000000000003</ele>
      </trkpt>
      <trkpt lat="39.720310000000005" lon="-5.17577">
        <ele>456.98</ele>
      </trkpt>
      <trkpt lat="39.72016" lon="-5.17593">
        <ele>455.90000000000003</ele>
      </trkpt>
      <trkpt lat="39.71957500289696" lon="-5.176740006756402">
        <ele>452.13</ele>
      </trkpt>
      <trkpt lat="39.718990000000005" lon="-5.17755">
        <ele>448.92</ele>
      </trkpt>
      <trkpt lat="39.718565000697524" lon="-5.177965002597611">
        <ele>449.34000000000003</ele>
      </trkpt>
      <trkpt lat="39.718140000000005" lon="-5.178380000000001">
        <ele>450.44000000000005</ele>
      </trkpt>
      <trkpt lat="39.7181" lon="-5.17844">
        <ele>450.79</ele>
      </trkpt>
      <trkpt lat="39.71791" lon="-5.17931">
        <ele>453.16</ele>
      </trkpt>
      <trkpt lat="39.71772" lon="-5.17977">
        <ele>454.39</ele>
      </trkpt>
      <trkpt lat="39.71759" lon="-5.17999">
        <ele>456.08000000000004</ele>
      </trkpt>
      <trkpt lat="39.7171" lon="-5.18076">
        <ele>459.20000000000005</ele>
      </trkpt>
      <trkpt lat="39.716770000000004" lon="-5.18123">
        <ele>461.12</ele>
      </trkpt>
      <trkpt lat="39.71661" lon="-5.18142">
        <ele>462.09000000000003</ele>
      </trkpt>
      <trkpt lat="39.716010000000004" lon="-5.18205">
        <ele>465.09000000000003</ele>
      </trkpt>
      <trkpt lat="39.71535" lon="-5.182810000000001">
        <ele>469.53000000000003</ele>
      </trkpt>
      <trkpt lat="39.7152" lon="-5.18299">
        <ele>470.82</ele>
      </trkpt>
      <trkpt lat="39.714780000000005" lon="-5.18388">
        <ele>473.96000000000004</ele>
      </trkpt>
      <trkpt lat="39.714650000000006" lon="-5.184100000000001">
        <ele>474.89000000000004</ele>
      </trkpt>
      <trkpt lat="39.714420000000004" lon="-5.18438">
        <ele>476.4200000000001</ele>
      </trkpt>
      <trkpt lat="39.71396" lon="-5.1848600000000005">
        <ele>478.94</ele>
      </trkpt>
      <trkpt lat="39.713240000000006" lon="-5.185530000000001">
        <ele>481.57000000000005</ele>
      </trkpt>
      <trkpt lat="39.71277500066975" lon="-5.185915002567118">
        <ele>482.57000000000005</ele>
      </trkpt>
      <trkpt lat="39.71231" lon="-5.1863">
        <ele>483.7</ele>
      </trkpt>
      <trkpt lat="39.711830000000006" lon="-5.18674">
        <ele>486.47</ele>
      </trkpt>
      <trkpt lat="39.71162" lon="-5.18696">
        <ele>487.35</ele>
      </trkpt>
      <trkpt lat="39.71112" lon="-5.18773">
        <ele>489.29</ele>
      </trkpt>
      <trkpt lat="39.710770000000004" lon="-5.188370000000001">
        <ele>491.08</ele>
      </trkpt>
      <trkpt lat="39.71052" lon="-5.18876">
        <ele>491.37</ele>
      </trkpt>
      <trkpt lat="39.710300000000004" lon="-5.18907">
        <ele>491.33000000000004</ele>
      </trkpt>
      <trkpt lat="39.70978" lon="-5.1897">
        <ele>489.56000000000006</ele>
      </trkpt>
      <trkpt lat="39.709210000000006" lon="-5.190340000000001">
        <ele>484.66</ele>
      </trkpt>
      <trkpt lat="39.70913" lon="-5.190440000000001">
        <ele>483.84000000000003</ele>
      </trkpt>
      <trkpt lat="39.708940000000005" lon="-5.19076">
        <ele>483.35</ele>
      </trkpt>
      <trkpt lat="39.70886" lon="-5.1909600000000005">
        <ele>482.92</ele>
      </trkpt>
      <trkpt lat="39.70875" lon="-5.19136">
        <ele>484.00000000000006</ele>
      </trkpt>
      <trkpt lat="39.70856500133103" lon="-5.191915001458606">
        <ele>486.46000000000004</ele>
      </trkpt>
      <trkpt lat="39.708380000000005" lon="-5.19247">
        <ele>488.75</ele>
      </trkpt>
      <trkpt lat="39.70814" lon="-5.19282">
        <ele>490.02000000000004</ele>
      </trkpt>
      <trkpt lat="39.70805" lon="-5.19371">
        <ele>494.01000000000005</ele>
      </trkpt>
      <trkpt lat="39.70788" lon="-5.194470000000001">
        <ele>494.56000000000006</ele>
      </trkpt>
      <trkpt lat="39.707860000000004" lon="-5.19489">
        <ele>494.07000000000005</ele>
      </trkpt>
      <trkpt lat="39.70785" lon="-5.19545">
        <ele>493.06000000000006</ele>
      </trkpt>
      <trkpt lat="39.707820000000005" lon="-5.19557">
        <ele>493.06000000000006</ele>
      </trkpt>
      <trkpt lat="39.707770000000004" lon="-5.19561">
        <ele>493.3500000000001</ele>
      </trkpt>
      <trkpt lat="39.707080000000005" lon="-5.1959100000000005">
        <ele>494.21000000000004</ele>
      </trkpt>
      <trkpt lat="39.7068" lon="-5.1961">
        <ele>494.40000000000003</ele>
      </trkpt>
      <trkpt lat="39.706390000000006" lon="-5.1965200000000005">
        <ele>494.48</ele>
      </trkpt>
      <trkpt lat="39.70571" lon="-5.196960000000001">
        <ele>495.08</ele>
      </trkpt>
    </trkseg>
  </trk>
</gpx>
